<?xml version="1.0" encoding="UTF-8" standalone="no" ?>
<gpx xmlns="http://www.topografix.com/GPX/1/1" xmlns:xsi="http://www.w3.org/2001/XMLSchema-instance" xsi:schemaLocation="http://www.topografix.com/GPX/1/1 http://www.topografix.com/GPX/1/1/gpx.xsd" version="1.1" creator="VisuGPX - https://www.visugpx.com">
  <metadata>
    <name>Montagne d\'Age</name>
    <desc><![CDATA[Une sortie agréable, mais surtout, un bon parcours d%u2019orientation.]]></desc>
  </metadata>
  <trk>
    <name><![CDATA[Montagne d Age]]></name>
    <trkseg>
      <trkpt lat="45.94039" lon="6.05338">
        <ele>487</ele>
        <time>2014-01-09T10:33:49Z</time>
      </trkpt>
      <trkpt lat="45.94031" lon="6.05333">
        <ele>488</ele>
        <time>2014-01-09T10:33:59Z</time>
      </trkpt>
      <trkpt lat="45.9403" lon="6.05341">
        <ele>488</ele>
        <time>2014-01-09T10:34:04Z</time>
      </trkpt>
      <trkpt lat="45.94032" lon="6.05363">
        <ele>490</ele>
        <time>2014-01-09T10:34:16Z</time>
      </trkpt>
      <trkpt lat="45.94035" lon="6.05382">
        <ele>491</ele>
        <time>2014-01-09T10:34:27Z</time>
      </trkpt>
      <trkpt lat="45.94033" lon="6.05398">
        <ele>491</ele>
        <time>2014-01-09T10:34:36Z</time>
      </trkpt>
      <trkpt lat="45.94034" lon="6.05417">
        <ele>494</ele>
        <time>2014-01-09T10:34:45Z</time>
      </trkpt>
      <trkpt lat="45.94034" lon="6.05434">
        <ele>495</ele>
        <time>2014-01-09T10:34:54Z</time>
      </trkpt>
      <trkpt lat="45.94033" lon="6.05453">
        <ele>496</ele>
        <time>2014-01-09T10:35:04Z</time>
      </trkpt>
      <trkpt lat="45.94033" lon="6.05469">
        <ele>497</ele>
        <time>2014-01-09T10:35:13Z</time>
      </trkpt>
      <trkpt lat="45.94032" lon="6.05474">
        <ele>497</ele>
        <time>2014-01-09T10:35:16Z</time>
      </trkpt>
      <trkpt lat="45.94032" lon="6.05478">
        <ele>497</ele>
        <time>2014-01-09T10:35:18Z</time>
      </trkpt>
      <trkpt lat="45.94032" lon="6.05488">
        <ele>498</ele>
        <time>2014-01-09T10:35:24Z</time>
      </trkpt>
      <trkpt lat="45.94032" lon="6.05512">
        <ele>498</ele>
        <time>2014-01-09T10:35:34Z</time>
      </trkpt>
      <trkpt lat="45.94031" lon="6.0553">
        <ele>499</ele>
        <time>2014-01-09T10:35:41Z</time>
      </trkpt>
      <trkpt lat="45.94028" lon="6.05548">
        <ele>500</ele>
        <time>2014-01-09T10:35:50Z</time>
      </trkpt>
      <trkpt lat="45.94027" lon="6.05555">
        <ele>501</ele>
        <time>2014-01-09T10:35:54Z</time>
      </trkpt>
      <trkpt lat="45.94024" lon="6.05562">
        <ele>502</ele>
        <time>2014-01-09T10:35:59Z</time>
      </trkpt>
      <trkpt lat="45.9402" lon="6.05563">
        <ele>503</ele>
        <time>2014-01-09T10:36:03Z</time>
      </trkpt>
      <trkpt lat="45.94014" lon="6.05571">
        <ele>505</ele>
        <time>2014-01-09T10:36:11Z</time>
      </trkpt>
      <trkpt lat="45.94009" lon="6.05577">
        <ele>506</ele>
        <time>2014-01-09T10:36:16Z</time>
      </trkpt>
      <trkpt lat="45.94004" lon="6.05595">
        <ele>511</ele>
        <time>2014-01-09T10:36:27Z</time>
      </trkpt>
      <trkpt lat="45.93998" lon="6.05604">
        <ele>512</ele>
        <time>2014-01-09T10:36:35Z</time>
      </trkpt>
      <trkpt lat="45.93992" lon="6.05616">
        <ele>514</ele>
        <time>2014-01-09T10:36:45Z</time>
      </trkpt>
      <trkpt lat="45.93986" lon="6.0562">
        <ele>515</ele>
        <time>2014-01-09T10:36:51Z</time>
      </trkpt>
      <trkpt lat="45.93981" lon="6.05618">
        <ele>516</ele>
        <time>2014-01-09T10:36:56Z</time>
      </trkpt>
      <trkpt lat="45.93974" lon="6.0561">
        <ele>519</ele>
        <time>2014-01-09T10:37:05Z</time>
      </trkpt>
      <trkpt lat="45.93967" lon="6.05607">
        <ele>521</ele>
        <time>2014-01-09T10:37:12Z</time>
      </trkpt>
      <trkpt lat="45.9396" lon="6.05609">
        <ele>523</ele>
        <time>2014-01-09T10:37:20Z</time>
      </trkpt>
      <trkpt lat="45.93953" lon="6.05613">
        <ele>524</ele>
        <time>2014-01-09T10:37:27Z</time>
      </trkpt>
      <trkpt lat="45.93951" lon="6.05614">
        <ele>525</ele>
        <time>2014-01-09T10:37:29Z</time>
      </trkpt>
      <trkpt lat="45.93939" lon="6.0562">
        <ele>526</ele>
        <time>2014-01-09T10:37:39Z</time>
      </trkpt>
      <trkpt lat="45.93931" lon="6.05629">
        <ele>528</ele>
        <time>2014-01-09T10:37:49Z</time>
      </trkpt>
      <trkpt lat="45.93922" lon="6.05638">
        <ele>529</ele>
        <time>2014-01-09T10:37:57Z</time>
      </trkpt>
      <trkpt lat="45.93913" lon="6.05651">
        <ele>530</ele>
        <time>2014-01-09T10:38:06Z</time>
      </trkpt>
      <trkpt lat="45.93911" lon="6.05655">
        <ele>530</ele>
        <time>2014-01-09T10:38:09Z</time>
      </trkpt>
      <trkpt lat="45.93907" lon="6.05666">
        <ele>532</ele>
        <time>2014-01-09T10:38:15Z</time>
      </trkpt>
      <trkpt lat="45.93901" lon="6.05685">
        <ele>532</ele>
        <time>2014-01-09T10:38:25Z</time>
      </trkpt>
      <trkpt lat="45.93901" lon="6.05687">
        <ele>532</ele>
        <time>2014-01-09T10:38:26Z</time>
      </trkpt>
      <trkpt lat="45.939" lon="6.05691">
        <ele>532</ele>
        <time>2014-01-09T10:38:28Z</time>
      </trkpt>
      <trkpt lat="45.93897" lon="6.05706">
        <ele>534</ele>
        <time>2014-01-09T10:38:37Z</time>
      </trkpt>
      <trkpt lat="45.93891" lon="6.05719">
        <ele>535</ele>
        <time>2014-01-09T10:38:44Z</time>
      </trkpt>
      <trkpt lat="45.9388" lon="6.0573">
        <ele>536</ele>
        <time>2014-01-09T10:38:53Z</time>
      </trkpt>
      <trkpt lat="45.93874" lon="6.05733">
        <ele>537</ele>
        <time>2014-01-09T10:38:58Z</time>
      </trkpt>
      <trkpt lat="45.93862" lon="6.05729">
        <ele>540</ele>
        <time>2014-01-09T10:39:09Z</time>
      </trkpt>
      <trkpt lat="45.93857" lon="6.05727">
        <ele>541</ele>
        <time>2014-01-09T10:39:15Z</time>
      </trkpt>
      <trkpt lat="45.93845" lon="6.05726">
        <ele>543</ele>
        <time>2014-01-09T10:39:25Z</time>
      </trkpt>
      <trkpt lat="45.93842" lon="6.05727">
        <ele>545</ele>
        <time>2014-01-09T10:39:28Z</time>
      </trkpt>
      <trkpt lat="45.93839" lon="6.0573">
        <ele>546</ele>
        <time>2014-01-09T10:39:32Z</time>
      </trkpt>
      <trkpt lat="45.93827" lon="6.05736">
        <ele>547</ele>
        <time>2014-01-09T10:39:42Z</time>
      </trkpt>
      <trkpt lat="45.93819" lon="6.05736">
        <ele>548</ele>
        <time>2014-01-09T10:39:48Z</time>
      </trkpt>
      <trkpt lat="45.93813" lon="6.05732">
        <ele>548</ele>
        <time>2014-01-09T10:39:54Z</time>
      </trkpt>
      <trkpt lat="45.93804" lon="6.05732">
        <ele>548</ele>
        <time>2014-01-09T10:39:59Z</time>
      </trkpt>
      <trkpt lat="45.93791" lon="6.05727">
        <ele>550</ele>
        <time>2014-01-09T10:40:10Z</time>
      </trkpt>
      <trkpt lat="45.93783" lon="6.05723">
        <ele>550</ele>
        <time>2014-01-09T10:40:17Z</time>
      </trkpt>
      <trkpt lat="45.93773" lon="6.05715">
        <ele>552</ele>
        <time>2014-01-09T10:40:24Z</time>
      </trkpt>
      <trkpt lat="45.93765" lon="6.05706">
        <ele>553</ele>
        <time>2014-01-09T10:40:31Z</time>
      </trkpt>
      <trkpt lat="45.93757" lon="6.05698">
        <ele>553</ele>
        <time>2014-01-09T10:40:39Z</time>
      </trkpt>
      <trkpt lat="45.93749" lon="6.05687">
        <ele>555</ele>
        <time>2014-01-09T10:40:47Z</time>
      </trkpt>
      <trkpt lat="45.93741" lon="6.05674">
        <ele>556</ele>
        <time>2014-01-09T10:40:56Z</time>
      </trkpt>
      <trkpt lat="45.93735" lon="6.05663">
        <ele>558</ele>
        <time>2014-01-09T10:41:03Z</time>
      </trkpt>
      <trkpt lat="45.93726" lon="6.05652">
        <ele>559</ele>
        <time>2014-01-09T10:41:12Z</time>
      </trkpt>
      <trkpt lat="45.93717" lon="6.05643">
        <ele>561</ele>
        <time>2014-01-09T10:41:20Z</time>
      </trkpt>
      <trkpt lat="45.93706" lon="6.05632">
        <ele>561</ele>
        <time>2014-01-09T10:41:29Z</time>
      </trkpt>
      <trkpt lat="45.93697" lon="6.05625">
        <ele>562</ele>
        <time>2014-01-09T10:41:36Z</time>
      </trkpt>
      <trkpt lat="45.9369" lon="6.05623">
        <ele>563</ele>
        <time>2014-01-09T10:41:42Z</time>
      </trkpt>
      <trkpt lat="45.9368" lon="6.05617">
        <ele>563</ele>
        <time>2014-01-09T10:41:50Z</time>
      </trkpt>
      <trkpt lat="45.93671" lon="6.05612">
        <ele>565</ele>
        <time>2014-01-09T10:41:57Z</time>
      </trkpt>
      <trkpt lat="45.9366" lon="6.05611">
        <ele>565</ele>
        <time>2014-01-09T10:42:05Z</time>
      </trkpt>
      <trkpt lat="45.93654" lon="6.05611">
        <ele>566</ele>
        <time>2014-01-09T10:42:09Z</time>
      </trkpt>
      <trkpt lat="45.93637" lon="6.05614">
        <ele>567</ele>
        <time>2014-01-09T10:42:20Z</time>
      </trkpt>
      <trkpt lat="45.93625" lon="6.05613">
        <ele>568</ele>
        <time>2014-01-09T10:42:28Z</time>
      </trkpt>
      <trkpt lat="45.93617" lon="6.0561">
        <ele>568</ele>
        <time>2014-01-09T10:42:33Z</time>
      </trkpt>
      <trkpt lat="45.93614" lon="6.05603">
        <ele>569</ele>
        <time>2014-01-09T10:42:37Z</time>
      </trkpt>
      <trkpt lat="45.93612" lon="6.056">
        <ele>568</ele>
        <time>2014-01-09T10:42:39Z</time>
      </trkpt>
      <trkpt lat="45.93601" lon="6.05592">
        <ele>570</ele>
        <time>2014-01-09T10:42:48Z</time>
      </trkpt>
      <trkpt lat="45.93595" lon="6.05589">
        <ele>570</ele>
        <time>2014-01-09T10:42:53Z</time>
      </trkpt>
      <trkpt lat="45.93581" lon="6.05574">
        <ele>572</ele>
        <time>2014-01-09T10:43:04Z</time>
      </trkpt>
      <trkpt lat="45.93573" lon="6.05565">
        <ele>573</ele>
        <time>2014-01-09T10:43:11Z</time>
      </trkpt>
      <trkpt lat="45.93563" lon="6.05557">
        <ele>574</ele>
        <time>2014-01-09T10:43:19Z</time>
      </trkpt>
      <trkpt lat="45.93551" lon="6.0555">
        <ele>575</ele>
        <time>2014-01-09T10:43:28Z</time>
      </trkpt>
      <trkpt lat="45.9354" lon="6.0555">
        <ele>576</ele>
        <time>2014-01-09T10:43:36Z</time>
      </trkpt>
      <trkpt lat="45.93532" lon="6.05546">
        <ele>577</ele>
        <time>2014-01-09T10:43:42Z</time>
      </trkpt>
      <trkpt lat="45.93521" lon="6.05541">
        <ele>577</ele>
        <time>2014-01-09T10:43:50Z</time>
      </trkpt>
      <trkpt lat="45.93505" lon="6.05537">
        <ele>577</ele>
        <time>2014-01-09T10:44:01Z</time>
      </trkpt>
      <trkpt lat="45.93489" lon="6.05536">
        <ele>577</ele>
        <time>2014-01-09T10:44:10Z</time>
      </trkpt>
      <trkpt lat="45.93475" lon="6.05532">
        <ele>577</ele>
        <time>2014-01-09T10:44:19Z</time>
      </trkpt>
      <trkpt lat="45.93473" lon="6.05526">
        <ele>577</ele>
        <time>2014-01-09T10:44:23Z</time>
      </trkpt>
      <trkpt lat="45.93466" lon="6.05512">
        <ele>579</ele>
        <time>2014-01-09T10:44:32Z</time>
      </trkpt>
      <trkpt lat="45.93464" lon="6.05492">
        <ele>579</ele>
        <time>2014-01-09T10:44:41Z</time>
      </trkpt>
      <trkpt lat="45.93466" lon="6.05479">
        <ele>580</ele>
        <time>2014-01-09T10:44:47Z</time>
      </trkpt>
      <trkpt lat="45.93479" lon="6.05473">
        <ele>581</ele>
        <time>2014-01-09T10:44:56Z</time>
      </trkpt>
      <trkpt lat="45.93491" lon="6.05469">
        <ele>582</ele>
        <time>2014-01-09T10:45:04Z</time>
      </trkpt>
      <trkpt lat="45.93499" lon="6.05462">
        <ele>583</ele>
        <time>2014-01-09T10:45:12Z</time>
      </trkpt>
      <trkpt lat="45.93505" lon="6.05453">
        <ele>587</ele>
        <time>2014-01-09T10:45:20Z</time>
      </trkpt>
      <trkpt lat="45.93516" lon="6.05444">
        <ele>588</ele>
        <time>2014-01-09T10:45:29Z</time>
      </trkpt>
      <trkpt lat="45.9353" lon="6.05438">
        <ele>590</ele>
        <time>2014-01-09T10:45:39Z</time>
      </trkpt>
      <trkpt lat="45.93542" lon="6.05433">
        <ele>591</ele>
        <time>2014-01-09T10:45:47Z</time>
      </trkpt>
      <trkpt lat="45.93554" lon="6.05427">
        <ele>592</ele>
        <time>2014-01-09T10:45:56Z</time>
      </trkpt>
      <trkpt lat="45.93563" lon="6.05424">
        <ele>592</ele>
        <time>2014-01-09T10:46:02Z</time>
      </trkpt>
      <trkpt lat="45.93574" lon="6.05413">
        <ele>593</ele>
        <time>2014-01-09T10:46:11Z</time>
      </trkpt>
      <trkpt lat="45.9358" lon="6.05408">
        <ele>593</ele>
        <time>2014-01-09T10:46:16Z</time>
      </trkpt>
      <trkpt lat="45.93593" lon="6.05398">
        <ele>596</ele>
        <time>2014-01-09T10:46:26Z</time>
      </trkpt>
      <trkpt lat="45.93598" lon="6.05388">
        <ele>598</ele>
        <time>2014-01-09T10:46:33Z</time>
      </trkpt>
      <trkpt lat="45.936" lon="6.05386">
        <ele>599</ele>
        <time>2014-01-09T10:46:35Z</time>
      </trkpt>
      <trkpt lat="45.9361" lon="6.05375">
        <ele>600</ele>
        <time>2014-01-09T10:46:44Z</time>
      </trkpt>
      <trkpt lat="45.93614" lon="6.05371">
        <ele>600</ele>
        <time>2014-01-09T10:46:48Z</time>
      </trkpt>
      <trkpt lat="45.93616" lon="6.05362">
        <ele>602</ele>
        <time>2014-01-09T10:46:53Z</time>
      </trkpt>
      <trkpt lat="45.93625" lon="6.05353">
        <ele>603</ele>
        <time>2014-01-09T10:47:01Z</time>
      </trkpt>
      <trkpt lat="45.93631" lon="6.05341">
        <ele>604</ele>
        <time>2014-01-09T10:47:08Z</time>
      </trkpt>
      <trkpt lat="45.93635" lon="6.05335">
        <ele>605</ele>
        <time>2014-01-09T10:47:12Z</time>
      </trkpt>
      <trkpt lat="45.93641" lon="6.05326">
        <ele>607</ele>
        <time>2014-01-09T10:47:18Z</time>
      </trkpt>
      <trkpt lat="45.93646" lon="6.05315">
        <ele>609</ele>
        <time>2014-01-09T10:47:25Z</time>
      </trkpt>
      <trkpt lat="45.93655" lon="6.05302">
        <ele>609</ele>
        <time>2014-01-09T10:47:34Z</time>
      </trkpt>
      <trkpt lat="45.93666" lon="6.05288">
        <ele>608</ele>
        <time>2014-01-09T10:47:44Z</time>
      </trkpt>
      <trkpt lat="45.93673" lon="6.05274">
        <ele>609</ele>
        <time>2014-01-09T10:47:53Z</time>
      </trkpt>
      <trkpt lat="45.93674" lon="6.05263">
        <ele>610</ele>
        <time>2014-01-09T10:47:59Z</time>
      </trkpt>
      <trkpt lat="45.9367" lon="6.05252">
        <ele>611</ele>
        <time>2014-01-09T10:48:06Z</time>
      </trkpt>
      <trkpt lat="45.93667" lon="6.05249">
        <ele>611</ele>
        <time>2014-01-09T10:48:09Z</time>
      </trkpt>
      <trkpt lat="45.93652" lon="6.05248">
        <ele>614</ele>
        <time>2014-01-09T10:48:20Z</time>
      </trkpt>
      <trkpt lat="45.93641" lon="6.05248">
        <ele>614</ele>
        <time>2014-01-09T10:48:28Z</time>
      </trkpt>
      <trkpt lat="45.93629" lon="6.05245">
        <ele>614</ele>
        <time>2014-01-09T10:48:37Z</time>
      </trkpt>
      <trkpt lat="45.93618" lon="6.05244">
        <ele>616</ele>
        <time>2014-01-09T10:48:45Z</time>
      </trkpt>
      <trkpt lat="45.93605" lon="6.05242">
        <ele>617</ele>
        <time>2014-01-09T10:48:55Z</time>
      </trkpt>
      <trkpt lat="45.93591" lon="6.05242">
        <ele>618</ele>
        <time>2014-01-09T10:49:05Z</time>
      </trkpt>
      <trkpt lat="45.9358" lon="6.05241">
        <ele>619</ele>
        <time>2014-01-09T10:49:13Z</time>
      </trkpt>
      <trkpt lat="45.93576" lon="6.05236">
        <ele>618</ele>
        <time>2014-01-09T10:49:17Z</time>
      </trkpt>
      <trkpt lat="45.93569" lon="6.05227">
        <ele>618</ele>
        <time>2014-01-09T10:49:23Z</time>
      </trkpt>
      <trkpt lat="45.93558" lon="6.05222">
        <ele>618</ele>
        <time>2014-01-09T10:49:30Z</time>
      </trkpt>
      <trkpt lat="45.93547" lon="6.05221">
        <ele>618</ele>
        <time>2014-01-09T10:49:37Z</time>
      </trkpt>
      <trkpt lat="45.93536" lon="6.05224">
        <ele>618</ele>
        <time>2014-01-09T10:49:45Z</time>
      </trkpt>
      <trkpt lat="45.93533" lon="6.05228">
        <ele>619</ele>
        <time>2014-01-09T10:49:49Z</time>
      </trkpt>
      <trkpt lat="45.93531" lon="6.05231">
        <ele>618</ele>
        <time>2014-01-09T10:49:51Z</time>
      </trkpt>
      <trkpt lat="45.93524" lon="6.05237">
        <ele>617</ele>
        <time>2014-01-09T10:49:59Z</time>
      </trkpt>
      <trkpt lat="45.93518" lon="6.05219">
        <ele>618</ele>
        <time>2014-01-09T10:50:37Z</time>
      </trkpt>
      <trkpt lat="45.93513" lon="6.05214">
        <ele>617</ele>
        <time>2014-01-09T10:50:42Z</time>
      </trkpt>
      <trkpt lat="45.93511" lon="6.05209">
        <ele>615</ele>
        <time>2014-01-09T10:50:45Z</time>
      </trkpt>
      <trkpt lat="45.93505" lon="6.05197">
        <ele>615</ele>
        <time>2014-01-09T10:50:52Z</time>
      </trkpt>
      <trkpt lat="45.93506" lon="6.05184">
        <ele>615</ele>
        <time>2014-01-09T10:50:59Z</time>
      </trkpt>
      <trkpt lat="45.93506" lon="6.05182">
        <ele>616</ele>
        <time>2014-01-09T10:51:00Z</time>
      </trkpt>
      <trkpt lat="45.935" lon="6.05174">
        <ele>616</ele>
        <time>2014-01-09T10:51:06Z</time>
      </trkpt>
      <trkpt lat="45.93491" lon="6.05171">
        <ele>618</ele>
        <time>2014-01-09T10:51:14Z</time>
      </trkpt>
      <trkpt lat="45.93482" lon="6.05167">
        <ele>616</ele>
        <time>2014-01-09T10:51:22Z</time>
      </trkpt>
      <trkpt lat="45.93481" lon="6.05168">
        <ele>616</ele>
        <time>2014-01-09T10:51:23Z</time>
      </trkpt>
      <trkpt lat="45.9347" lon="6.05173">
        <ele>616</ele>
        <time>2014-01-09T10:51:32Z</time>
      </trkpt>
      <trkpt lat="45.93464" lon="6.05179">
        <ele>617</ele>
        <time>2014-01-09T10:51:38Z</time>
      </trkpt>
      <trkpt lat="45.93464" lon="6.05182">
        <ele>617</ele>
        <time>2014-01-09T10:51:40Z</time>
      </trkpt>
      <trkpt lat="45.93458" lon="6.05192">
        <ele>617</ele>
        <time>2014-01-09T10:51:47Z</time>
      </trkpt>
      <trkpt lat="45.93458" lon="6.05202">
        <ele>617</ele>
        <time>2014-01-09T10:51:53Z</time>
      </trkpt>
      <trkpt lat="45.93459" lon="6.05206">
        <ele>616</ele>
        <time>2014-01-09T10:51:55Z</time>
      </trkpt>
      <trkpt lat="45.93454" lon="6.05221">
        <ele>616</ele>
        <time>2014-01-09T10:52:03Z</time>
      </trkpt>
      <trkpt lat="45.93446" lon="6.05232">
        <ele>615</ele>
        <time>2014-01-09T10:52:10Z</time>
      </trkpt>
      <trkpt lat="45.93445" lon="6.05235">
        <ele>614</ele>
        <time>2014-01-09T10:52:12Z</time>
      </trkpt>
      <trkpt lat="45.93435" lon="6.05235">
        <ele>613</ele>
        <time>2014-01-09T10:52:20Z</time>
      </trkpt>
      <trkpt lat="45.93433" lon="6.05235">
        <ele>613</ele>
        <time>2014-01-09T10:52:23Z</time>
      </trkpt>
      <trkpt lat="45.93427" lon="6.05236">
        <ele>611</ele>
        <time>2014-01-09T10:52:30Z</time>
      </trkpt>
      <trkpt lat="45.9342" lon="6.05231">
        <ele>609</ele>
        <time>2014-01-09T10:52:37Z</time>
      </trkpt>
      <trkpt lat="45.93414" lon="6.05215">
        <ele>608</ele>
        <time>2014-01-09T10:52:46Z</time>
      </trkpt>
      <trkpt lat="45.93412" lon="6.0521">
        <ele>608</ele>
        <time>2014-01-09T10:52:49Z</time>
      </trkpt>
      <trkpt lat="45.93407" lon="6.05203">
        <ele>608</ele>
        <time>2014-01-09T10:52:54Z</time>
      </trkpt>
      <trkpt lat="45.93409" lon="6.05192">
        <ele>607</ele>
        <time>2014-01-09T10:53:00Z</time>
      </trkpt>
      <trkpt lat="45.9341" lon="6.05178">
        <ele>606</ele>
        <time>2014-01-09T10:53:06Z</time>
      </trkpt>
      <trkpt lat="45.93413" lon="6.05167">
        <ele>605</ele>
        <time>2014-01-09T10:53:12Z</time>
      </trkpt>
      <trkpt lat="45.93413" lon="6.05158">
        <ele>605</ele>
        <time>2014-01-09T10:53:15Z</time>
      </trkpt>
      <trkpt lat="45.93415" lon="6.05152">
        <ele>605</ele>
        <time>2014-01-09T10:53:18Z</time>
      </trkpt>
      <trkpt lat="45.93422" lon="6.05138">
        <ele>604</ele>
        <time>2014-01-09T10:53:25Z</time>
      </trkpt>
      <trkpt lat="45.93424" lon="6.05136">
        <ele>604</ele>
        <time>2014-01-09T10:53:26Z</time>
      </trkpt>
      <trkpt lat="45.93433" lon="6.05123">
        <ele>604</ele>
        <time>2014-01-09T10:53:34Z</time>
      </trkpt>
      <trkpt lat="45.93436" lon="6.05119">
        <ele>603</ele>
        <time>2014-01-09T10:53:38Z</time>
      </trkpt>
      <trkpt lat="45.93436" lon="6.05111">
        <ele>604</ele>
        <time>2014-01-09T10:53:45Z</time>
      </trkpt>
      <trkpt lat="45.93433" lon="6.05105">
        <ele>606</ele>
        <time>2014-01-09T10:53:52Z</time>
      </trkpt>
      <trkpt lat="45.93432" lon="6.05101">
        <ele>607</ele>
        <time>2014-01-09T10:53:54Z</time>
      </trkpt>
      <trkpt lat="45.93429" lon="6.05093">
        <ele>609</ele>
        <time>2014-01-09T10:53:59Z</time>
      </trkpt>
      <trkpt lat="45.93425" lon="6.05078">
        <ele>612</ele>
        <time>2014-01-09T10:54:08Z</time>
      </trkpt>
      <trkpt lat="45.93424" lon="6.05077">
        <ele>614</ele>
        <time>2014-01-09T10:54:09Z</time>
      </trkpt>
      <trkpt lat="45.93417" lon="6.05064">
        <ele>614</ele>
        <time>2014-01-09T10:54:17Z</time>
      </trkpt>
      <trkpt lat="45.93414" lon="6.05049">
        <ele>615</ele>
        <time>2014-01-09T10:54:25Z</time>
      </trkpt>
      <trkpt lat="45.93409" lon="6.05034">
        <ele>613</ele>
        <time>2014-01-09T10:54:33Z</time>
      </trkpt>
      <trkpt lat="45.93408" lon="6.05027">
        <ele>613</ele>
        <time>2014-01-09T10:54:37Z</time>
      </trkpt>
      <trkpt lat="45.93405" lon="6.05019">
        <ele>611</ele>
        <time>2014-01-09T10:54:44Z</time>
      </trkpt>
      <trkpt lat="45.93395" lon="6.05016">
        <ele>612</ele>
        <time>2014-01-09T10:54:52Z</time>
      </trkpt>
      <trkpt lat="45.93384" lon="6.05019">
        <ele>612</ele>
        <time>2014-01-09T10:55:00Z</time>
      </trkpt>
      <trkpt lat="45.93373" lon="6.0502">
        <ele>612</ele>
        <time>2014-01-09T10:55:09Z</time>
      </trkpt>
      <trkpt lat="45.93368" lon="6.05019">
        <ele>612</ele>
        <time>2014-01-09T10:55:12Z</time>
      </trkpt>
      <trkpt lat="45.93364" lon="6.05017">
        <ele>613</ele>
        <time>2014-01-09T10:55:16Z</time>
      </trkpt>
      <trkpt lat="45.93359" lon="6.05002">
        <ele>615</ele>
        <time>2014-01-09T10:55:25Z</time>
      </trkpt>
      <trkpt lat="45.93357" lon="6.04997">
        <ele>619</ele>
        <time>2014-01-09T10:55:31Z</time>
      </trkpt>
      <trkpt lat="45.93349" lon="6.04987">
        <ele>621</ele>
        <time>2014-01-09T10:55:41Z</time>
      </trkpt>
      <trkpt lat="45.93348" lon="6.04985">
        <ele>622</ele>
        <time>2014-01-09T10:55:43Z</time>
      </trkpt>
      <trkpt lat="45.93343" lon="6.04978">
        <ele>623</ele>
        <time>2014-01-09T10:55:51Z</time>
      </trkpt>
      <trkpt lat="45.9334" lon="6.04965">
        <ele>625</ele>
        <time>2014-01-09T10:56:00Z</time>
      </trkpt>
      <trkpt lat="45.93336" lon="6.04958">
        <ele>626</ele>
        <time>2014-01-09T10:56:06Z</time>
      </trkpt>
      <trkpt lat="45.93335" lon="6.04955">
        <ele>626</ele>
        <time>2014-01-09T10:56:08Z</time>
      </trkpt>
      <trkpt lat="45.93334" lon="6.04949">
        <ele>627</ele>
        <time>2014-01-09T10:56:11Z</time>
      </trkpt>
      <trkpt lat="45.9333" lon="6.0494">
        <ele>628</ele>
        <time>2014-01-09T10:56:16Z</time>
      </trkpt>
      <trkpt lat="45.93328" lon="6.04928">
        <ele>628</ele>
        <time>2014-01-09T10:56:23Z</time>
      </trkpt>
      <trkpt lat="45.93322" lon="6.04916">
        <ele>629</ele>
        <time>2014-01-09T10:56:31Z</time>
      </trkpt>
      <trkpt lat="45.93322" lon="6.04915">
        <ele>629</ele>
        <time>2014-01-09T10:56:32Z</time>
      </trkpt>
      <trkpt lat="45.93323" lon="6.04901">
        <ele>629</ele>
        <time>2014-01-09T10:56:39Z</time>
      </trkpt>
      <trkpt lat="45.93324" lon="6.04898">
        <ele>628</ele>
        <time>2014-01-09T10:56:41Z</time>
      </trkpt>
      <trkpt lat="45.93325" lon="6.04884">
        <ele>628</ele>
        <time>2014-01-09T10:56:49Z</time>
      </trkpt>
      <trkpt lat="45.93326" lon="6.04879">
        <ele>629</ele>
        <time>2014-01-09T10:56:51Z</time>
      </trkpt>
      <trkpt lat="45.93326" lon="6.04871">
        <ele>629</ele>
        <time>2014-01-09T10:56:55Z</time>
      </trkpt>
      <trkpt lat="45.93326" lon="6.04854">
        <ele>630</ele>
        <time>2014-01-09T10:57:03Z</time>
      </trkpt>
      <trkpt lat="45.93328" lon="6.04839">
        <ele>630</ele>
        <time>2014-01-09T10:57:10Z</time>
      </trkpt>
      <trkpt lat="45.93327" lon="6.04826">
        <ele>629</ele>
        <time>2014-01-09T10:57:17Z</time>
      </trkpt>
      <trkpt lat="45.93327" lon="6.04824">
        <ele>629</ele>
        <time>2014-01-09T10:57:18Z</time>
      </trkpt>
      <trkpt lat="45.93319" lon="6.04815">
        <ele>630</ele>
        <time>2014-01-09T10:57:25Z</time>
      </trkpt>
      <trkpt lat="45.93312" lon="6.04802">
        <ele>630</ele>
        <time>2014-01-09T10:57:33Z</time>
      </trkpt>
      <trkpt lat="45.93305" lon="6.04791">
        <ele>630</ele>
        <time>2014-01-09T10:57:39Z</time>
      </trkpt>
      <trkpt lat="45.93305" lon="6.0479">
        <ele>630</ele>
        <time>2014-01-09T10:57:40Z</time>
      </trkpt>
      <trkpt lat="45.933" lon="6.04787">
        <ele>631</ele>
        <time>2014-01-09T10:57:44Z</time>
      </trkpt>
      <trkpt lat="45.93291" lon="6.0479">
        <ele>634</ele>
        <time>2014-01-09T10:57:54Z</time>
      </trkpt>
      <trkpt lat="45.93288" lon="6.04789">
        <ele>633</ele>
        <time>2014-01-09T10:57:56Z</time>
      </trkpt>
      <trkpt lat="45.93284" lon="6.04789">
        <ele>636</ele>
        <time>2014-01-09T10:57:59Z</time>
      </trkpt>
      <trkpt lat="45.93276" lon="6.04792">
        <ele>637</ele>
        <time>2014-01-09T10:58:05Z</time>
      </trkpt>
      <trkpt lat="45.93266" lon="6.04788">
        <ele>638</ele>
        <time>2014-01-09T10:58:13Z</time>
      </trkpt>
      <trkpt lat="45.93256" lon="6.04782">
        <ele>639</ele>
        <time>2014-01-09T10:58:20Z</time>
      </trkpt>
      <trkpt lat="45.93246" lon="6.0478">
        <ele>640</ele>
        <time>2014-01-09T10:58:28Z</time>
      </trkpt>
      <trkpt lat="45.93233" lon="6.04778">
        <ele>641</ele>
        <time>2014-01-09T10:58:37Z</time>
      </trkpt>
      <trkpt lat="45.93225" lon="6.04772">
        <ele>641</ele>
        <time>2014-01-09T10:58:43Z</time>
      </trkpt>
      <trkpt lat="45.93214" lon="6.04765">
        <ele>640</ele>
        <time>2014-01-09T10:58:50Z</time>
      </trkpt>
      <trkpt lat="45.93202" lon="6.0476">
        <ele>639</ele>
        <time>2014-01-09T10:58:59Z</time>
      </trkpt>
      <trkpt lat="45.93192" lon="6.04756">
        <ele>640</ele>
        <time>2014-01-09T10:59:06Z</time>
      </trkpt>
      <trkpt lat="45.9318" lon="6.04751">
        <ele>640</ele>
        <time>2014-01-09T10:59:14Z</time>
      </trkpt>
      <trkpt lat="45.93169" lon="6.04747">
        <ele>640</ele>
        <time>2014-01-09T10:59:23Z</time>
      </trkpt>
      <trkpt lat="45.93155" lon="6.04742">
        <ele>640</ele>
        <time>2014-01-09T10:59:32Z</time>
      </trkpt>
      <trkpt lat="45.93141" lon="6.04733">
        <ele>640</ele>
        <time>2014-01-09T10:59:41Z</time>
      </trkpt>
      <trkpt lat="45.93133" lon="6.04726">
        <ele>639</ele>
        <time>2014-01-09T10:59:49Z</time>
      </trkpt>
      <trkpt lat="45.93119" lon="6.04717">
        <ele>639</ele>
        <time>2014-01-09T10:59:59Z</time>
      </trkpt>
      <trkpt lat="45.93112" lon="6.04711">
        <ele>639</ele>
        <time>2014-01-09T11:00:05Z</time>
      </trkpt>
      <trkpt lat="45.93104" lon="6.047">
        <ele>640</ele>
        <time>2014-01-09T11:00:12Z</time>
      </trkpt>
      <trkpt lat="45.93103" lon="6.04697">
        <ele>640</ele>
        <time>2014-01-09T11:00:13Z</time>
      </trkpt>
      <trkpt lat="45.93097" lon="6.04688">
        <ele>640</ele>
        <time>2014-01-09T11:00:21Z</time>
      </trkpt>
      <trkpt lat="45.931" lon="6.04668">
        <ele>640</ele>
        <time>2014-01-09T11:00:30Z</time>
      </trkpt>
      <trkpt lat="45.93103" lon="6.04657">
        <ele>641</ele>
        <time>2014-01-09T11:00:35Z</time>
      </trkpt>
      <trkpt lat="45.93106" lon="6.04645">
        <ele>641</ele>
        <time>2014-01-09T11:00:41Z</time>
      </trkpt>
      <trkpt lat="45.93109" lon="6.04628">
        <ele>641</ele>
        <time>2014-01-09T11:00:49Z</time>
      </trkpt>
      <trkpt lat="45.93113" lon="6.04612">
        <ele>643</ele>
        <time>2014-01-09T11:00:58Z</time>
      </trkpt>
      <trkpt lat="45.93117" lon="6.04604">
        <ele>642</ele>
        <time>2014-01-09T11:01:04Z</time>
      </trkpt>
      <trkpt lat="45.93117" lon="6.04596">
        <ele>643</ele>
        <time>2014-01-09T11:01:08Z</time>
      </trkpt>
      <trkpt lat="45.93116" lon="6.04578">
        <ele>645</ele>
        <time>2014-01-09T11:01:16Z</time>
      </trkpt>
      <trkpt lat="45.93112" lon="6.0457">
        <ele>645</ele>
        <time>2014-01-09T11:01:21Z</time>
      </trkpt>
      <trkpt lat="45.9311" lon="6.04558">
        <ele>646</ele>
        <time>2014-01-09T11:01:29Z</time>
      </trkpt>
      <trkpt lat="45.93107" lon="6.04541">
        <ele>647</ele>
        <time>2014-01-09T11:01:38Z</time>
      </trkpt>
      <trkpt lat="45.93104" lon="6.04521">
        <ele>648</ele>
        <time>2014-01-09T11:01:46Z</time>
      </trkpt>
      <trkpt lat="45.93097" lon="6.0451">
        <ele>649</ele>
        <time>2014-01-09T11:01:53Z</time>
      </trkpt>
      <trkpt lat="45.93094" lon="6.04505">
        <ele>649</ele>
        <time>2014-01-09T11:01:56Z</time>
      </trkpt>
      <trkpt lat="45.9309" lon="6.04502">
        <ele>650</ele>
        <time>2014-01-09T11:01:59Z</time>
      </trkpt>
      <trkpt lat="45.93079" lon="6.04491">
        <ele>649</ele>
        <time>2014-01-09T11:02:07Z</time>
      </trkpt>
      <trkpt lat="45.93079" lon="6.04488">
        <ele>650</ele>
        <time>2014-01-09T11:02:09Z</time>
      </trkpt>
      <trkpt lat="45.93078" lon="6.04486">
        <ele>650</ele>
        <time>2014-01-09T11:02:11Z</time>
      </trkpt>
      <trkpt lat="45.93073" lon="6.0448">
        <ele>651</ele>
        <time>2014-01-09T11:02:16Z</time>
      </trkpt>
      <trkpt lat="45.93062" lon="6.04475">
        <ele>651</ele>
        <time>2014-01-09T11:02:23Z</time>
      </trkpt>
      <trkpt lat="45.9305" lon="6.04472">
        <ele>653</ele>
        <time>2014-01-09T11:02:32Z</time>
      </trkpt>
      <trkpt lat="45.93042" lon="6.04472">
        <ele>655</ele>
        <time>2014-01-09T11:02:38Z</time>
      </trkpt>
      <trkpt lat="45.93035" lon="6.04468">
        <ele>657</ele>
        <time>2014-01-09T11:02:44Z</time>
      </trkpt>
      <trkpt lat="45.93033" lon="6.04467">
        <ele>656</ele>
        <time>2014-01-09T11:02:45Z</time>
      </trkpt>
      <trkpt lat="45.93026" lon="6.04464">
        <ele>657</ele>
        <time>2014-01-09T11:02:52Z</time>
      </trkpt>
      <trkpt lat="45.93019" lon="6.04464">
        <ele>656</ele>
        <time>2014-01-09T11:02:57Z</time>
      </trkpt>
      <trkpt lat="45.93009" lon="6.04476">
        <ele>659</ele>
        <time>2014-01-09T11:03:07Z</time>
      </trkpt>
      <trkpt lat="45.93006" lon="6.04479">
        <ele>659</ele>
        <time>2014-01-09T11:03:10Z</time>
      </trkpt>
      <trkpt lat="45.93" lon="6.0449">
        <ele>660</ele>
        <time>2014-01-09T11:03:18Z</time>
      </trkpt>
      <trkpt lat="45.92995" lon="6.04494">
        <ele>660</ele>
        <time>2014-01-09T11:03:24Z</time>
      </trkpt>
      <trkpt lat="45.92986" lon="6.045">
        <ele>661</ele>
        <time>2014-01-09T11:03:30Z</time>
      </trkpt>
      <trkpt lat="45.92976" lon="6.04501">
        <ele>663</ele>
        <time>2014-01-09T11:03:37Z</time>
      </trkpt>
      <trkpt lat="45.9296" lon="6.04496">
        <ele>665</ele>
        <time>2014-01-09T11:03:48Z</time>
      </trkpt>
      <trkpt lat="45.92953" lon="6.04493">
        <ele>666</ele>
        <time>2014-01-09T11:03:53Z</time>
      </trkpt>
      <trkpt lat="45.92949" lon="6.04489">
        <ele>667</ele>
        <time>2014-01-09T11:03:56Z</time>
      </trkpt>
      <trkpt lat="45.92948" lon="6.04488">
        <ele>667</ele>
        <time>2014-01-09T11:03:57Z</time>
      </trkpt>
      <trkpt lat="45.9294" lon="6.04485">
        <ele>668</ele>
        <time>2014-01-09T11:04:02Z</time>
      </trkpt>
      <trkpt lat="45.92925" lon="6.04479">
        <ele>670</ele>
        <time>2014-01-09T11:04:12Z</time>
      </trkpt>
      <trkpt lat="45.92921" lon="6.04478">
        <ele>670</ele>
        <time>2014-01-09T11:04:15Z</time>
      </trkpt>
      <trkpt lat="45.92912" lon="6.04474">
        <ele>668</ele>
        <time>2014-01-09T11:04:23Z</time>
      </trkpt>
      <trkpt lat="45.929" lon="6.04468">
        <ele>669</ele>
        <time>2014-01-09T11:04:31Z</time>
      </trkpt>
      <trkpt lat="45.9289" lon="6.04466">
        <ele>669</ele>
        <time>2014-01-09T11:04:38Z</time>
      </trkpt>
      <trkpt lat="45.92882" lon="6.04461">
        <ele>668</ele>
        <time>2014-01-09T11:04:43Z</time>
      </trkpt>
      <trkpt lat="45.92871" lon="6.04457">
        <ele>667</ele>
        <time>2014-01-09T11:04:50Z</time>
      </trkpt>
      <trkpt lat="45.92863" lon="6.04463">
        <ele>668</ele>
        <time>2014-01-09T11:04:57Z</time>
      </trkpt>
      <trkpt lat="45.92851" lon="6.0447">
        <ele>667</ele>
        <time>2014-01-09T11:05:07Z</time>
      </trkpt>
      <trkpt lat="45.92844" lon="6.04477">
        <ele>665</ele>
        <time>2014-01-09T11:05:12Z</time>
      </trkpt>
      <trkpt lat="45.9284" lon="6.04485">
        <ele>665</ele>
        <time>2014-01-09T11:05:18Z</time>
      </trkpt>
      <trkpt lat="45.9283" lon="6.04495">
        <ele>665</ele>
        <time>2014-01-09T11:05:25Z</time>
      </trkpt>
      <trkpt lat="45.92821" lon="6.04501">
        <ele>664</ele>
        <time>2014-01-09T11:05:32Z</time>
      </trkpt>
      <trkpt lat="45.92815" lon="6.04508">
        <ele>665</ele>
        <time>2014-01-09T11:05:37Z</time>
      </trkpt>
      <trkpt lat="45.92805" lon="6.04515">
        <ele>667</ele>
        <time>2014-01-09T11:05:44Z</time>
      </trkpt>
      <trkpt lat="45.92796" lon="6.04521">
        <ele>667</ele>
        <time>2014-01-09T11:05:52Z</time>
      </trkpt>
      <trkpt lat="45.92784" lon="6.0453">
        <ele>667</ele>
        <time>2014-01-09T11:06:01Z</time>
      </trkpt>
      <trkpt lat="45.92772" lon="6.04535">
        <ele>668</ele>
        <time>2014-01-09T11:06:09Z</time>
      </trkpt>
      <trkpt lat="45.92757" lon="6.04524">
        <ele>668</ele>
        <time>2014-01-09T11:06:19Z</time>
      </trkpt>
      <trkpt lat="45.92748" lon="6.04517">
        <ele>669</ele>
        <time>2014-01-09T11:06:27Z</time>
      </trkpt>
      <trkpt lat="45.92735" lon="6.04513">
        <ele>670</ele>
        <time>2014-01-09T11:06:35Z</time>
      </trkpt>
      <trkpt lat="45.92732" lon="6.04512">
        <ele>669</ele>
        <time>2014-01-09T11:06:37Z</time>
      </trkpt>
      <trkpt lat="45.9272" lon="6.04508">
        <ele>669</ele>
        <time>2014-01-09T11:06:46Z</time>
      </trkpt>
      <trkpt lat="45.9271" lon="6.04505">
        <ele>669</ele>
        <time>2014-01-09T11:06:53Z</time>
      </trkpt>
      <trkpt lat="45.92701" lon="6.045">
        <ele>669</ele>
        <time>2014-01-09T11:06:59Z</time>
      </trkpt>
      <trkpt lat="45.9269" lon="6.04496">
        <ele>670</ele>
        <time>2014-01-09T11:07:07Z</time>
      </trkpt>
      <trkpt lat="45.92681" lon="6.04491">
        <ele>670</ele>
        <time>2014-01-09T11:07:14Z</time>
      </trkpt>
      <trkpt lat="45.92669" lon="6.04486">
        <ele>669</ele>
        <time>2014-01-09T11:07:23Z</time>
      </trkpt>
      <trkpt lat="45.92658" lon="6.04485">
        <ele>670</ele>
        <time>2014-01-09T11:07:30Z</time>
      </trkpt>
      <trkpt lat="45.92653" lon="6.04482">
        <ele>670</ele>
        <time>2014-01-09T11:07:33Z</time>
      </trkpt>
      <trkpt lat="45.92647" lon="6.04479">
        <ele>670</ele>
        <time>2014-01-09T11:07:37Z</time>
      </trkpt>
      <trkpt lat="45.92631" lon="6.04472">
        <ele>669</ele>
        <time>2014-01-09T11:07:47Z</time>
      </trkpt>
      <trkpt lat="45.92624" lon="6.04469">
        <ele>667</ele>
        <time>2014-01-09T11:07:53Z</time>
      </trkpt>
      <trkpt lat="45.92618" lon="6.04468">
        <ele>667</ele>
        <time>2014-01-09T11:07:57Z</time>
      </trkpt>
      <trkpt lat="45.92614" lon="6.04463">
        <ele>665</ele>
        <time>2014-01-09T11:08:01Z</time>
      </trkpt>
      <trkpt lat="45.92617" lon="6.04454">
        <ele>665</ele>
        <time>2014-01-09T11:08:08Z</time>
      </trkpt>
      <trkpt lat="45.92619" lon="6.04447">
        <ele>664</ele>
        <time>2014-01-09T11:08:12Z</time>
      </trkpt>
      <trkpt lat="45.92621" lon="6.04434">
        <ele>663</ele>
        <time>2014-01-09T11:08:20Z</time>
      </trkpt>
      <trkpt lat="45.92623" lon="6.04428">
        <ele>663</ele>
        <time>2014-01-09T11:08:23Z</time>
      </trkpt>
      <trkpt lat="45.92625" lon="6.04418">
        <ele>662</ele>
        <time>2014-01-09T11:08:29Z</time>
      </trkpt>
      <trkpt lat="45.92626" lon="6.04414">
        <ele>662</ele>
        <time>2014-01-09T11:08:31Z</time>
      </trkpt>
      <trkpt lat="45.92629" lon="6.04399">
        <ele>661</ele>
        <time>2014-01-09T11:08:37Z</time>
      </trkpt>
      <trkpt lat="45.92634" lon="6.04389">
        <ele>660</ele>
        <time>2014-01-09T11:08:42Z</time>
      </trkpt>
      <trkpt lat="45.92639" lon="6.04376">
        <ele>658</ele>
        <time>2014-01-09T11:08:50Z</time>
      </trkpt>
      <trkpt lat="45.92645" lon="6.04366">
        <ele>657</ele>
        <time>2014-01-09T11:08:57Z</time>
      </trkpt>
      <trkpt lat="45.92651" lon="6.04351">
        <ele>655</ele>
        <time>2014-01-09T11:09:05Z</time>
      </trkpt>
      <trkpt lat="45.92657" lon="6.04336">
        <ele>655</ele>
        <time>2014-01-09T11:09:13Z</time>
      </trkpt>
      <trkpt lat="45.92658" lon="6.04333">
        <ele>654</ele>
        <time>2014-01-09T11:09:15Z</time>
      </trkpt>
      <trkpt lat="45.92662" lon="6.04321">
        <ele>654</ele>
        <time>2014-01-09T11:09:20Z</time>
      </trkpt>
      <trkpt lat="45.92665" lon="6.04313">
        <ele>654</ele>
        <time>2014-01-09T11:09:24Z</time>
      </trkpt>
      <trkpt lat="45.92664" lon="6.04308">
        <ele>653</ele>
        <time>2014-01-09T11:09:28Z</time>
      </trkpt>
      <trkpt lat="45.9266" lon="6.04305">
        <ele>653</ele>
        <time>2014-01-09T11:09:32Z</time>
      </trkpt>
      <trkpt lat="45.92651" lon="6.04304">
        <ele>654</ele>
        <time>2014-01-09T11:09:40Z</time>
      </trkpt>
      <trkpt lat="45.92639" lon="6.04304">
        <ele>654</ele>
        <time>2014-01-09T11:09:48Z</time>
      </trkpt>
      <trkpt lat="45.9263" lon="6.04306">
        <ele>655</ele>
        <time>2014-01-09T11:09:54Z</time>
      </trkpt>
      <trkpt lat="45.92618" lon="6.04309">
        <ele>656</ele>
        <time>2014-01-09T11:10:03Z</time>
      </trkpt>
      <trkpt lat="45.92606" lon="6.04312">
        <ele>657</ele>
        <time>2014-01-09T11:10:12Z</time>
      </trkpt>
      <trkpt lat="45.92594" lon="6.04318">
        <ele>658</ele>
        <time>2014-01-09T11:10:21Z</time>
      </trkpt>
      <trkpt lat="45.92586" lon="6.04323">
        <ele>658</ele>
        <time>2014-01-09T11:10:27Z</time>
      </trkpt>
      <trkpt lat="45.92577" lon="6.04331">
        <ele>657</ele>
        <time>2014-01-09T11:10:35Z</time>
      </trkpt>
      <trkpt lat="45.92569" lon="6.04339">
        <ele>658</ele>
        <time>2014-01-09T11:10:42Z</time>
      </trkpt>
      <trkpt lat="45.92559" lon="6.04339">
        <ele>658</ele>
        <time>2014-01-09T11:10:49Z</time>
      </trkpt>
      <trkpt lat="45.92548" lon="6.04338">
        <ele>658</ele>
        <time>2014-01-09T11:10:56Z</time>
      </trkpt>
      <trkpt lat="45.92532" lon="6.04326">
        <ele>657</ele>
        <time>2014-01-09T11:11:07Z</time>
      </trkpt>
      <trkpt lat="45.92522" lon="6.04312">
        <ele>656</ele>
        <time>2014-01-09T11:11:15Z</time>
      </trkpt>
      <trkpt lat="45.9252" lon="6.04312">
        <ele>656</ele>
        <time>2014-01-09T11:11:16Z</time>
      </trkpt>
      <trkpt lat="45.92512" lon="6.04309">
        <ele>657</ele>
        <time>2014-01-09T11:11:24Z</time>
      </trkpt>
      <trkpt lat="45.92502" lon="6.04311">
        <ele>656</ele>
        <time>2014-01-09T11:11:31Z</time>
      </trkpt>
      <trkpt lat="45.9249" lon="6.04316">
        <ele>657</ele>
        <time>2014-01-09T11:11:40Z</time>
      </trkpt>
      <trkpt lat="45.92483" lon="6.04317">
        <ele>657</ele>
        <time>2014-01-09T11:11:44Z</time>
      </trkpt>
      <trkpt lat="45.92476" lon="6.04319">
        <ele>657</ele>
        <time>2014-01-09T11:11:49Z</time>
      </trkpt>
      <trkpt lat="45.92463" lon="6.04319">
        <ele>657</ele>
        <time>2014-01-09T11:11:58Z</time>
      </trkpt>
      <trkpt lat="45.92458" lon="6.04319">
        <ele>656</ele>
        <time>2014-01-09T11:12:01Z</time>
      </trkpt>
      <trkpt lat="45.92448" lon="6.04315">
        <ele>656</ele>
        <time>2014-01-09T11:12:09Z</time>
      </trkpt>
      <trkpt lat="45.92443" lon="6.04312">
        <ele>656</ele>
        <time>2014-01-09T11:12:12Z</time>
      </trkpt>
      <trkpt lat="45.92431" lon="6.04302">
        <ele>656</ele>
        <time>2014-01-09T11:12:20Z</time>
      </trkpt>
      <trkpt lat="45.92419" lon="6.04292">
        <ele>655</ele>
        <time>2014-01-09T11:12:28Z</time>
      </trkpt>
      <trkpt lat="45.92412" lon="6.04288">
        <ele>656</ele>
        <time>2014-01-09T11:12:33Z</time>
      </trkpt>
      <trkpt lat="45.92403" lon="6.0429">
        <ele>653</ele>
        <time>2014-01-09T11:12:41Z</time>
      </trkpt>
      <trkpt lat="45.92393" lon="6.04296">
        <ele>653</ele>
        <time>2014-01-09T11:12:48Z</time>
      </trkpt>
      <trkpt lat="45.92382" lon="6.04306">
        <ele>653</ele>
        <time>2014-01-09T11:12:56Z</time>
      </trkpt>
      <trkpt lat="45.92371" lon="6.04314">
        <ele>654</ele>
        <time>2014-01-09T11:13:05Z</time>
      </trkpt>
      <trkpt lat="45.92365" lon="6.04319">
        <ele>653</ele>
        <time>2014-01-09T11:13:12Z</time>
      </trkpt>
      <trkpt lat="45.92362" lon="6.04323">
        <ele>652</ele>
        <time>2014-01-09T11:13:15Z</time>
      </trkpt>
      <trkpt lat="45.92354" lon="6.04334">
        <ele>651</ele>
        <time>2014-01-09T11:13:23Z</time>
      </trkpt>
      <trkpt lat="45.92351" lon="6.04342">
        <ele>651</ele>
        <time>2014-01-09T11:13:28Z</time>
      </trkpt>
      <trkpt lat="45.92347" lon="6.04358">
        <ele>652</ele>
        <time>2014-01-09T11:13:36Z</time>
      </trkpt>
      <trkpt lat="45.92345" lon="6.04362">
        <ele>651</ele>
        <time>2014-01-09T11:13:38Z</time>
      </trkpt>
      <trkpt lat="45.92342" lon="6.04374">
        <ele>650</ele>
        <time>2014-01-09T11:13:44Z</time>
      </trkpt>
      <trkpt lat="45.9234" lon="6.04377">
        <ele>650</ele>
        <time>2014-01-09T11:13:46Z</time>
      </trkpt>
      <trkpt lat="45.92339" lon="6.04382">
        <ele>650</ele>
        <time>2014-01-09T11:13:49Z</time>
      </trkpt>
      <trkpt lat="45.92328" lon="6.04394">
        <ele>650</ele>
        <time>2014-01-09T11:13:57Z</time>
      </trkpt>
      <trkpt lat="45.9232" lon="6.04406">
        <ele>649</ele>
        <time>2014-01-09T11:14:04Z</time>
      </trkpt>
      <trkpt lat="45.92314" lon="6.04418">
        <ele>647</ele>
        <time>2014-01-09T11:14:11Z</time>
      </trkpt>
      <trkpt lat="45.92312" lon="6.04421">
        <ele>647</ele>
        <time>2014-01-09T11:14:13Z</time>
      </trkpt>
      <trkpt lat="45.92308" lon="6.04437">
        <ele>648</ele>
        <time>2014-01-09T11:14:21Z</time>
      </trkpt>
      <trkpt lat="45.92311" lon="6.04454">
        <ele>647</ele>
        <time>2014-01-09T11:14:29Z</time>
      </trkpt>
      <trkpt lat="45.92314" lon="6.04471">
        <ele>646</ele>
        <time>2014-01-09T11:14:37Z</time>
      </trkpt>
      <trkpt lat="45.92314" lon="6.0448">
        <ele>647</ele>
        <time>2014-01-09T11:14:41Z</time>
      </trkpt>
      <trkpt lat="45.92309" lon="6.04491">
        <ele>647</ele>
        <time>2014-01-09T11:14:47Z</time>
      </trkpt>
      <trkpt lat="45.92301" lon="6.04498">
        <ele>649</ele>
        <time>2014-01-09T11:14:54Z</time>
      </trkpt>
      <trkpt lat="45.92288" lon="6.04489">
        <ele>648</ele>
        <time>2014-01-09T11:15:03Z</time>
      </trkpt>
      <trkpt lat="45.92287" lon="6.04489">
        <ele>647</ele>
        <time>2014-01-09T11:15:04Z</time>
      </trkpt>
      <trkpt lat="45.9228" lon="6.04487">
        <ele>645</ele>
        <time>2014-01-09T11:15:11Z</time>
      </trkpt>
      <trkpt lat="45.92269" lon="6.04493">
        <ele>644</ele>
        <time>2014-01-09T11:15:18Z</time>
      </trkpt>
      <trkpt lat="45.92261" lon="6.04498">
        <ele>642</ele>
        <time>2014-01-09T11:15:25Z</time>
      </trkpt>
      <trkpt lat="45.92256" lon="6.04509">
        <ele>642</ele>
        <time>2014-01-09T11:15:32Z</time>
      </trkpt>
      <trkpt lat="45.92252" lon="6.04519">
        <ele>641</ele>
        <time>2014-01-09T11:15:37Z</time>
      </trkpt>
      <trkpt lat="45.92247" lon="6.04528">
        <ele>640</ele>
        <time>2014-01-09T11:15:44Z</time>
      </trkpt>
      <trkpt lat="45.92241" lon="6.0454">
        <ele>639</ele>
        <time>2014-01-09T11:15:50Z</time>
      </trkpt>
      <trkpt lat="45.92238" lon="6.04553">
        <ele>638</ele>
        <time>2014-01-09T11:15:57Z</time>
      </trkpt>
      <trkpt lat="45.92235" lon="6.04565">
        <ele>637</ele>
        <time>2014-01-09T11:16:03Z</time>
      </trkpt>
      <trkpt lat="45.92234" lon="6.04583">
        <ele>636</ele>
        <time>2014-01-09T11:16:10Z</time>
      </trkpt>
      <trkpt lat="45.92233" lon="6.04589">
        <ele>636</ele>
        <time>2014-01-09T11:16:13Z</time>
      </trkpt>
      <trkpt lat="45.92228" lon="6.046">
        <ele>635</ele>
        <time>2014-01-09T11:16:20Z</time>
      </trkpt>
      <trkpt lat="45.92224" lon="6.04611">
        <ele>635</ele>
        <time>2014-01-09T11:16:26Z</time>
      </trkpt>
      <trkpt lat="45.92221" lon="6.04619">
        <ele>633</ele>
        <time>2014-01-09T11:16:29Z</time>
      </trkpt>
      <trkpt lat="45.92213" lon="6.0463">
        <ele>633</ele>
        <time>2014-01-09T11:16:36Z</time>
      </trkpt>
      <trkpt lat="45.92209" lon="6.04634">
        <ele>633</ele>
        <time>2014-01-09T11:16:39Z</time>
      </trkpt>
      <trkpt lat="45.92201" lon="6.04644">
        <ele>631</ele>
        <time>2014-01-09T11:16:47Z</time>
      </trkpt>
      <trkpt lat="45.92196" lon="6.0465">
        <ele>630</ele>
        <time>2014-01-09T11:16:52Z</time>
      </trkpt>
      <trkpt lat="45.92183" lon="6.04664">
        <ele>630</ele>
        <time>2014-01-09T11:17:01Z</time>
      </trkpt>
      <trkpt lat="45.92178" lon="6.04673">
        <ele>629</ele>
        <time>2014-01-09T11:17:07Z</time>
      </trkpt>
      <trkpt lat="45.92177" lon="6.04675">
        <ele>629</ele>
        <time>2014-01-09T11:17:09Z</time>
      </trkpt>
      <trkpt lat="45.92174" lon="6.04683">
        <ele>628</ele>
        <time>2014-01-09T11:17:14Z</time>
      </trkpt>
      <trkpt lat="45.92175" lon="6.04697">
        <ele>629</ele>
        <time>2014-01-09T11:17:21Z</time>
      </trkpt>
      <trkpt lat="45.92178" lon="6.04702">
        <ele>629</ele>
        <time>2014-01-09T11:17:25Z</time>
      </trkpt>
      <trkpt lat="45.92183" lon="6.04713">
        <ele>628</ele>
        <time>2014-01-09T11:17:31Z</time>
      </trkpt>
      <trkpt lat="45.92191" lon="6.04728">
        <ele>629</ele>
        <time>2014-01-09T11:17:40Z</time>
      </trkpt>
      <trkpt lat="45.922" lon="6.04737">
        <ele>629</ele>
        <time>2014-01-09T11:17:48Z</time>
      </trkpt>
      <trkpt lat="45.92209" lon="6.04742">
        <ele>629</ele>
        <time>2014-01-09T11:17:54Z</time>
      </trkpt>
      <trkpt lat="45.92218" lon="6.04744">
        <ele>629</ele>
        <time>2014-01-09T11:18:01Z</time>
      </trkpt>
      <trkpt lat="45.92229" lon="6.0475">
        <ele>629</ele>
        <time>2014-01-09T11:18:08Z</time>
      </trkpt>
      <trkpt lat="45.92239" lon="6.04751">
        <ele>628</ele>
        <time>2014-01-09T11:18:16Z</time>
      </trkpt>
      <trkpt lat="45.92252" lon="6.04756">
        <ele>628</ele>
        <time>2014-01-09T11:18:24Z</time>
      </trkpt>
      <trkpt lat="45.92264" lon="6.04757">
        <ele>629</ele>
        <time>2014-01-09T11:18:32Z</time>
      </trkpt>
      <trkpt lat="45.92271" lon="6.04758">
        <ele>630</ele>
        <time>2014-01-09T11:18:37Z</time>
      </trkpt>
      <trkpt lat="45.92284" lon="6.04765">
        <ele>630</ele>
        <time>2014-01-09T11:18:47Z</time>
      </trkpt>
      <trkpt lat="45.92296" lon="6.04768">
        <ele>631</ele>
        <time>2014-01-09T11:18:56Z</time>
      </trkpt>
      <trkpt lat="45.92302" lon="6.04755">
        <ele>632</ele>
        <time>2014-01-09T11:19:05Z</time>
      </trkpt>
      <trkpt lat="45.92308" lon="6.04746">
        <ele>632</ele>
        <time>2014-01-09T11:19:12Z</time>
      </trkpt>
      <trkpt lat="45.92315" lon="6.04733">
        <ele>632</ele>
        <time>2014-01-09T11:19:21Z</time>
      </trkpt>
      <trkpt lat="45.92322" lon="6.0472">
        <ele>633</ele>
        <time>2014-01-09T11:19:29Z</time>
      </trkpt>
      <trkpt lat="45.92326" lon="6.04706">
        <ele>636</ele>
        <time>2014-01-09T11:19:39Z</time>
      </trkpt>
      <trkpt lat="45.92326" lon="6.04693">
        <ele>636</ele>
        <time>2014-01-09T11:19:47Z</time>
      </trkpt>
      <trkpt lat="45.92326" lon="6.04689">
        <ele>637</ele>
        <time>2014-01-09T11:19:49Z</time>
      </trkpt>
      <trkpt lat="45.92327" lon="6.04682">
        <ele>637</ele>
        <time>2014-01-09T11:19:52Z</time>
      </trkpt>
      <trkpt lat="45.92331" lon="6.04675">
        <ele>637</ele>
        <time>2014-01-09T11:19:56Z</time>
      </trkpt>
      <trkpt lat="45.92341" lon="6.04659">
        <ele>638</ele>
        <time>2014-01-09T11:20:05Z</time>
      </trkpt>
      <trkpt lat="45.92349" lon="6.0465">
        <ele>639</ele>
        <time>2014-01-09T11:20:11Z</time>
      </trkpt>
      <trkpt lat="45.92358" lon="6.04639">
        <ele>640</ele>
        <time>2014-01-09T11:20:20Z</time>
      </trkpt>
      <trkpt lat="45.92361" lon="6.04635">
        <ele>641</ele>
        <time>2014-01-09T11:20:23Z</time>
      </trkpt>
      <trkpt lat="45.92364" lon="6.04631">
        <ele>642</ele>
        <time>2014-01-09T11:20:27Z</time>
      </trkpt>
      <trkpt lat="45.92372" lon="6.04621">
        <ele>644</ele>
        <time>2014-01-09T11:20:36Z</time>
      </trkpt>
      <trkpt lat="45.9238" lon="6.04615">
        <ele>645</ele>
        <time>2014-01-09T11:20:43Z</time>
      </trkpt>
      <trkpt lat="45.92388" lon="6.04612">
        <ele>648</ele>
        <time>2014-01-09T11:20:50Z</time>
      </trkpt>
      <trkpt lat="45.92394" lon="6.04607">
        <ele>648</ele>
        <time>2014-01-09T11:20:55Z</time>
      </trkpt>
      <trkpt lat="45.92406" lon="6.04603">
        <ele>649</ele>
        <time>2014-01-09T11:21:05Z</time>
      </trkpt>
      <trkpt lat="45.9242" lon="6.04599">
        <ele>651</ele>
        <time>2014-01-09T11:21:16Z</time>
      </trkpt>
      <trkpt lat="45.92429" lon="6.04594">
        <ele>654</ele>
        <time>2014-01-09T11:21:24Z</time>
      </trkpt>
      <trkpt lat="45.92441" lon="6.0459">
        <ele>654</ele>
        <time>2014-01-09T11:21:33Z</time>
      </trkpt>
      <trkpt lat="45.92449" lon="6.04589">
        <ele>655</ele>
        <time>2014-01-09T11:21:38Z</time>
      </trkpt>
      <trkpt lat="45.92464" lon="6.04585">
        <ele>656</ele>
        <time>2014-01-09T11:21:48Z</time>
      </trkpt>
      <trkpt lat="45.92475" lon="6.0458">
        <ele>656</ele>
        <time>2014-01-09T11:21:56Z</time>
      </trkpt>
      <trkpt lat="45.92485" lon="6.04577">
        <ele>657</ele>
        <time>2014-01-09T11:22:05Z</time>
      </trkpt>
      <trkpt lat="45.92488" lon="6.04574">
        <ele>658</ele>
        <time>2014-01-09T11:22:09Z</time>
      </trkpt>
      <trkpt lat="45.92496" lon="6.04566">
        <ele>658</ele>
        <time>2014-01-09T11:22:16Z</time>
      </trkpt>
      <trkpt lat="45.92505" lon="6.04557">
        <ele>661</ele>
        <time>2014-01-09T11:22:23Z</time>
      </trkpt>
      <trkpt lat="45.92509" lon="6.04551">
        <ele>661</ele>
        <time>2014-01-09T11:22:28Z</time>
      </trkpt>
      <trkpt lat="45.92513" lon="6.04543">
        <ele>662</ele>
        <time>2014-01-09T11:22:33Z</time>
      </trkpt>
      <trkpt lat="45.9252" lon="6.04534">
        <ele>663</ele>
        <time>2014-01-09T11:22:40Z</time>
      </trkpt>
      <trkpt lat="45.92521" lon="6.04533">
        <ele>663</ele>
        <time>2014-01-09T11:22:41Z</time>
      </trkpt>
      <trkpt lat="45.9253" lon="6.04528">
        <ele>664</ele>
        <time>2014-01-09T11:22:47Z</time>
      </trkpt>
      <trkpt lat="45.92532" lon="6.04526">
        <ele>664</ele>
        <time>2014-01-09T11:22:50Z</time>
      </trkpt>
      <trkpt lat="45.92537" lon="6.04514">
        <ele>665</ele>
        <time>2014-01-09T11:22:58Z</time>
      </trkpt>
      <trkpt lat="45.92543" lon="6.04507">
        <ele>667</ele>
        <time>2014-01-09T11:23:03Z</time>
      </trkpt>
      <trkpt lat="45.92556" lon="6.04495">
        <ele>668</ele>
        <time>2014-01-09T11:23:12Z</time>
      </trkpt>
      <trkpt lat="45.92565" lon="6.04486">
        <ele>667</ele>
        <time>2014-01-09T11:23:20Z</time>
      </trkpt>
      <trkpt lat="45.92573" lon="6.04481">
        <ele>667</ele>
        <time>2014-01-09T11:23:27Z</time>
      </trkpt>
      <trkpt lat="45.92582" lon="6.04476">
        <ele>667</ele>
        <time>2014-01-09T11:23:34Z</time>
      </trkpt>
      <trkpt lat="45.92592" lon="6.04469">
        <ele>670</ele>
        <time>2014-01-09T11:23:42Z</time>
      </trkpt>
      <trkpt lat="45.92603" lon="6.04463">
        <ele>671</ele>
        <time>2014-01-09T11:23:50Z</time>
      </trkpt>
      <trkpt lat="45.92607" lon="6.04464">
        <ele>671</ele>
        <time>2014-01-09T11:23:53Z</time>
      </trkpt>
      <trkpt lat="45.9262" lon="6.04466">
        <ele>673</ele>
        <time>2014-01-09T11:24:02Z</time>
      </trkpt>
      <trkpt lat="45.92621" lon="6.04467">
        <ele>674</ele>
        <time>2014-01-09T11:24:03Z</time>
      </trkpt>
      <trkpt lat="45.92634" lon="6.04473">
        <ele>674</ele>
        <time>2014-01-09T11:24:12Z</time>
      </trkpt>
      <trkpt lat="45.92646" lon="6.04479">
        <ele>674</ele>
        <time>2014-01-09T11:24:21Z</time>
      </trkpt>
      <trkpt lat="45.92654" lon="6.0448">
        <ele>675</ele>
        <time>2014-01-09T11:24:27Z</time>
      </trkpt>
      <trkpt lat="45.92656" lon="6.0448">
        <ele>674</ele>
        <time>2014-01-09T11:24:28Z</time>
      </trkpt>
      <trkpt lat="45.92667" lon="6.04485">
        <ele>674</ele>
        <time>2014-01-09T11:24:36Z</time>
      </trkpt>
      <trkpt lat="45.92679" lon="6.0449">
        <ele>674</ele>
        <time>2014-01-09T11:24:45Z</time>
      </trkpt>
      <trkpt lat="45.92692" lon="6.04493">
        <ele>674</ele>
        <time>2014-01-09T11:24:53Z</time>
      </trkpt>
      <trkpt lat="45.92706" lon="6.04498">
        <ele>674</ele>
        <time>2014-01-09T11:25:01Z</time>
      </trkpt>
      <trkpt lat="45.92715" lon="6.04502">
        <ele>674</ele>
        <time>2014-01-09T11:25:07Z</time>
      </trkpt>
      <trkpt lat="45.92727" lon="6.04507">
        <ele>674</ele>
        <time>2014-01-09T11:25:16Z</time>
      </trkpt>
      <trkpt lat="45.92733" lon="6.04508">
        <ele>675</ele>
        <time>2014-01-09T11:25:20Z</time>
      </trkpt>
      <trkpt lat="45.92745" lon="6.04514">
        <ele>674</ele>
        <time>2014-01-09T11:25:29Z</time>
      </trkpt>
      <trkpt lat="45.92753" lon="6.0452">
        <ele>674</ele>
        <time>2014-01-09T11:25:35Z</time>
      </trkpt>
      <trkpt lat="45.92763" lon="6.04531">
        <ele>673</ele>
        <time>2014-01-09T11:25:43Z</time>
      </trkpt>
      <trkpt lat="45.92764" lon="6.04532">
        <ele>673</ele>
        <time>2014-01-09T11:25:44Z</time>
      </trkpt>
      <trkpt lat="45.92767" lon="6.04532">
        <ele>673</ele>
        <time>2014-01-09T11:25:47Z</time>
      </trkpt>
      <trkpt lat="45.92774" lon="6.04524">
        <ele>673</ele>
        <time>2014-01-09T11:25:54Z</time>
      </trkpt>
      <trkpt lat="45.9278" lon="6.0452">
        <ele>673</ele>
        <time>2014-01-09T11:25:59Z</time>
      </trkpt>
      <trkpt lat="45.92792" lon="6.04512">
        <ele>673</ele>
        <time>2014-01-09T11:26:07Z</time>
      </trkpt>
      <trkpt lat="45.928" lon="6.04506">
        <ele>672</ele>
        <time>2014-01-09T11:26:14Z</time>
      </trkpt>
      <trkpt lat="45.92802" lon="6.04505">
        <ele>671</ele>
        <time>2014-01-09T11:26:16Z</time>
      </trkpt>
      <trkpt lat="45.92815" lon="6.04498">
        <ele>671</ele>
        <time>2014-01-09T11:26:23Z</time>
      </trkpt>
      <trkpt lat="45.92822" lon="6.04494">
        <ele>671</ele>
        <time>2014-01-09T11:26:28Z</time>
      </trkpt>
      <trkpt lat="45.92834" lon="6.04482">
        <ele>671</ele>
        <time>2014-01-09T11:26:37Z</time>
      </trkpt>
      <trkpt lat="45.92843" lon="6.0447">
        <ele>673</ele>
        <time>2014-01-09T11:26:46Z</time>
      </trkpt>
      <trkpt lat="45.92852" lon="6.04463">
        <ele>674</ele>
        <time>2014-01-09T11:26:53Z</time>
      </trkpt>
      <trkpt lat="45.92862" lon="6.04456">
        <ele>674</ele>
        <time>2014-01-09T11:27:00Z</time>
      </trkpt>
      <trkpt lat="45.92868" lon="6.04455">
        <ele>674</ele>
        <time>2014-01-09T11:27:04Z</time>
      </trkpt>
      <trkpt lat="45.92878" lon="6.04457">
        <ele>674</ele>
        <time>2014-01-09T11:27:11Z</time>
      </trkpt>
      <trkpt lat="45.92884" lon="6.0446">
        <ele>675</ele>
        <time>2014-01-09T11:27:15Z</time>
      </trkpt>
      <trkpt lat="45.92894" lon="6.04464">
        <ele>676</ele>
        <time>2014-01-09T11:27:23Z</time>
      </trkpt>
      <trkpt lat="45.92905" lon="6.04471">
        <ele>675</ele>
        <time>2014-01-09T11:27:31Z</time>
      </trkpt>
      <trkpt lat="45.92916" lon="6.04474">
        <ele>675</ele>
        <time>2014-01-09T11:27:40Z</time>
      </trkpt>
      <trkpt lat="45.92918" lon="6.04475">
        <ele>676</ele>
        <time>2014-01-09T11:27:42Z</time>
      </trkpt>
      <trkpt lat="45.92925" lon="6.04476">
        <ele>675</ele>
        <time>2014-01-09T11:27:46Z</time>
      </trkpt>
      <trkpt lat="45.92935" lon="6.04481">
        <ele>675</ele>
        <time>2014-01-09T11:27:53Z</time>
      </trkpt>
      <trkpt lat="45.92944" lon="6.04487">
        <ele>674</ele>
        <time>2014-01-09T11:27:59Z</time>
      </trkpt>
      <trkpt lat="45.92957" lon="6.04492">
        <ele>672</ele>
        <time>2014-01-09T11:28:07Z</time>
      </trkpt>
      <trkpt lat="45.92966" lon="6.04497">
        <ele>671</ele>
        <time>2014-01-09T11:28:13Z</time>
      </trkpt>
      <trkpt lat="45.92972" lon="6.045">
        <ele>669</ele>
        <time>2014-01-09T11:28:18Z</time>
      </trkpt>
      <trkpt lat="45.92981" lon="6.04491">
        <ele>668</ele>
        <time>2014-01-09T11:28:27Z</time>
      </trkpt>
      <trkpt lat="45.9299" lon="6.04483">
        <ele>667</ele>
        <time>2014-01-09T11:28:34Z</time>
      </trkpt>
      <trkpt lat="45.92996" lon="6.04474">
        <ele>666</ele>
        <time>2014-01-09T11:28:41Z</time>
      </trkpt>
      <trkpt lat="45.93006" lon="6.0446">
        <ele>665</ele>
        <time>2014-01-09T11:28:50Z</time>
      </trkpt>
      <trkpt lat="45.9301" lon="6.04458">
        <ele>665</ele>
        <time>2014-01-09T11:28:53Z</time>
      </trkpt>
      <trkpt lat="45.93016" lon="6.04456">
        <ele>665</ele>
        <time>2014-01-09T11:28:56Z</time>
      </trkpt>
      <trkpt lat="45.9302" lon="6.04456">
        <ele>665</ele>
        <time>2014-01-09T11:28:59Z</time>
      </trkpt>
      <trkpt lat="45.93031" lon="6.04464">
        <ele>663</ele>
        <time>2014-01-09T11:29:07Z</time>
      </trkpt>
      <trkpt lat="45.93037" lon="6.04467">
        <ele>662</ele>
        <time>2014-01-09T11:29:12Z</time>
      </trkpt>
      <trkpt lat="45.93049" lon="6.04471">
        <ele>662</ele>
        <time>2014-01-09T11:29:21Z</time>
      </trkpt>
      <trkpt lat="45.93059" lon="6.04475">
        <ele>660</ele>
        <time>2014-01-09T11:29:29Z</time>
      </trkpt>
      <trkpt lat="45.93066" lon="6.04476">
        <ele>659</ele>
        <time>2014-01-09T11:29:35Z</time>
      </trkpt>
      <trkpt lat="45.93078" lon="6.04482">
        <ele>659</ele>
        <time>2014-01-09T11:29:44Z</time>
      </trkpt>
      <trkpt lat="45.93089" lon="6.0449">
        <ele>657</ele>
        <time>2014-01-09T11:29:52Z</time>
      </trkpt>
      <trkpt lat="45.93103" lon="6.04502">
        <ele>656</ele>
        <time>2014-01-09T11:30:01Z</time>
      </trkpt>
      <trkpt lat="45.9311" lon="6.0452">
        <ele>655</ele>
        <time>2014-01-09T11:30:09Z</time>
      </trkpt>
      <trkpt lat="45.93112" lon="6.04536">
        <ele>654</ele>
        <time>2014-01-09T11:30:17Z</time>
      </trkpt>
      <trkpt lat="45.93117" lon="6.0455">
        <ele>653</ele>
        <time>2014-01-09T11:30:25Z</time>
      </trkpt>
      <trkpt lat="45.93122" lon="6.04565">
        <ele>652</ele>
        <time>2014-01-09T11:30:33Z</time>
      </trkpt>
      <trkpt lat="45.93122" lon="6.04567">
        <ele>652</ele>
        <time>2014-01-09T11:30:34Z</time>
      </trkpt>
      <trkpt lat="45.93126" lon="6.04591">
        <ele>652</ele>
        <time>2014-01-09T11:30:43Z</time>
      </trkpt>
      <trkpt lat="45.93122" lon="6.0461">
        <ele>652</ele>
        <time>2014-01-09T11:30:52Z</time>
      </trkpt>
      <trkpt lat="45.93117" lon="6.04621">
        <ele>651</ele>
        <time>2014-01-09T11:30:58Z</time>
      </trkpt>
      <trkpt lat="45.93114" lon="6.04636">
        <ele>651</ele>
        <time>2014-01-09T11:31:05Z</time>
      </trkpt>
      <trkpt lat="45.9311" lon="6.04648">
        <ele>651</ele>
        <time>2014-01-09T11:31:12Z</time>
      </trkpt>
      <trkpt lat="45.93109" lon="6.04652">
        <ele>651</ele>
        <time>2014-01-09T11:31:14Z</time>
      </trkpt>
      <trkpt lat="45.93102" lon="6.04666">
        <ele>651</ele>
        <time>2014-01-09T11:31:22Z</time>
      </trkpt>
      <trkpt lat="45.93101" lon="6.04668">
        <ele>651</ele>
        <time>2014-01-09T11:31:23Z</time>
      </trkpt>
      <trkpt lat="45.93103" lon="6.04679">
        <ele>651</ele>
        <time>2014-01-09T11:31:31Z</time>
      </trkpt>
      <trkpt lat="45.93106" lon="6.04692">
        <ele>651</ele>
        <time>2014-01-09T11:31:38Z</time>
      </trkpt>
      <trkpt lat="45.93114" lon="6.04706">
        <ele>650</ele>
        <time>2014-01-09T11:31:45Z</time>
      </trkpt>
      <trkpt lat="45.93118" lon="6.04713">
        <ele>650</ele>
        <time>2014-01-09T11:31:50Z</time>
      </trkpt>
      <trkpt lat="45.93126" lon="6.04719">
        <ele>651</ele>
        <time>2014-01-09T11:31:59Z</time>
      </trkpt>
      <trkpt lat="45.93135" lon="6.04725">
        <ele>651</ele>
        <time>2014-01-09T11:32:05Z</time>
      </trkpt>
      <trkpt lat="45.93144" lon="6.04732">
        <ele>651</ele>
        <time>2014-01-09T11:32:12Z</time>
      </trkpt>
      <trkpt lat="45.93156" lon="6.04738">
        <ele>652</ele>
        <time>2014-01-09T11:32:20Z</time>
      </trkpt>
      <trkpt lat="45.93159" lon="6.0474">
        <ele>652</ele>
        <time>2014-01-09T11:32:22Z</time>
      </trkpt>
      <trkpt lat="45.93176" lon="6.04744">
        <ele>651</ele>
        <time>2014-01-09T11:32:33Z</time>
      </trkpt>
      <trkpt lat="45.93188" lon="6.0475">
        <ele>652</ele>
        <time>2014-01-09T11:32:42Z</time>
      </trkpt>
      <trkpt lat="45.93202" lon="6.04758">
        <ele>652</ele>
        <time>2014-01-09T11:32:51Z</time>
      </trkpt>
      <trkpt lat="45.93216" lon="6.04765">
        <ele>653</ele>
        <time>2014-01-09T11:33:01Z</time>
      </trkpt>
      <trkpt lat="45.93222" lon="6.04767">
        <ele>653</ele>
        <time>2014-01-09T11:33:06Z</time>
      </trkpt>
      <trkpt lat="45.93231" lon="6.04771">
        <ele>653</ele>
        <time>2014-01-09T11:33:13Z</time>
      </trkpt>
      <trkpt lat="45.93244" lon="6.04773">
        <ele>652</ele>
        <time>2014-01-09T11:33:22Z</time>
      </trkpt>
      <trkpt lat="45.93257" lon="6.04778">
        <ele>651</ele>
        <time>2014-01-09T11:33:30Z</time>
      </trkpt>
      <trkpt lat="45.93259" lon="6.0478">
        <ele>650</ele>
        <time>2014-01-09T11:33:32Z</time>
      </trkpt>
      <trkpt lat="45.93265" lon="6.04782">
        <ele>650</ele>
        <time>2014-01-09T11:33:36Z</time>
      </trkpt>
      <trkpt lat="45.93277" lon="6.0478">
        <ele>647</ele>
        <time>2014-01-09T11:33:45Z</time>
      </trkpt>
      <trkpt lat="45.93281" lon="6.04781">
        <ele>646</ele>
        <time>2014-01-09T11:33:48Z</time>
      </trkpt>
      <trkpt lat="45.93288" lon="6.04778">
        <ele>645</ele>
        <time>2014-01-09T11:33:53Z</time>
      </trkpt>
      <trkpt lat="45.9329" lon="6.04776">
        <ele>645</ele>
        <time>2014-01-09T11:33:55Z</time>
      </trkpt>
      <trkpt lat="45.93299" lon="6.04776">
        <ele>643</ele>
        <time>2014-01-09T11:34:02Z</time>
      </trkpt>
      <trkpt lat="45.93304" lon="6.04783">
        <ele>644</ele>
        <time>2014-01-09T11:34:07Z</time>
      </trkpt>
      <trkpt lat="45.93312" lon="6.04795">
        <ele>644</ele>
        <time>2014-01-09T11:34:15Z</time>
      </trkpt>
      <trkpt lat="45.93314" lon="6.04799">
        <ele>643</ele>
        <time>2014-01-09T11:34:18Z</time>
      </trkpt>
      <trkpt lat="45.93325" lon="6.04809">
        <ele>643</ele>
        <time>2014-01-09T11:34:26Z</time>
      </trkpt>
      <trkpt lat="45.93329" lon="6.04826">
        <ele>643</ele>
        <time>2014-01-09T11:34:34Z</time>
      </trkpt>
      <trkpt lat="45.93329" lon="6.04832">
        <ele>643</ele>
        <time>2014-01-09T11:34:37Z</time>
      </trkpt>
      <trkpt lat="45.93327" lon="6.04846">
        <ele>643</ele>
        <time>2014-01-09T11:34:45Z</time>
      </trkpt>
      <trkpt lat="45.93328" lon="6.0486">
        <ele>642</ele>
        <time>2014-01-09T11:34:52Z</time>
      </trkpt>
      <trkpt lat="45.93327" lon="6.04877">
        <ele>642</ele>
        <time>2014-01-09T11:35:00Z</time>
      </trkpt>
      <trkpt lat="45.93325" lon="6.04893">
        <ele>643</ele>
        <time>2014-01-09T11:35:08Z</time>
      </trkpt>
      <trkpt lat="45.93323" lon="6.04899">
        <ele>643</ele>
        <time>2014-01-09T11:35:11Z</time>
      </trkpt>
      <trkpt lat="45.93327" lon="6.04912">
        <ele>642</ele>
        <time>2014-01-09T11:35:19Z</time>
      </trkpt>
      <trkpt lat="45.93329" lon="6.04917">
        <ele>641</ele>
        <time>2014-01-09T11:35:22Z</time>
      </trkpt>
      <trkpt lat="45.93331" lon="6.04931">
        <ele>641</ele>
        <time>2014-01-09T11:35:28Z</time>
      </trkpt>
      <trkpt lat="45.93333" lon="6.04939">
        <ele>638</ele>
        <time>2014-01-09T11:35:32Z</time>
      </trkpt>
      <trkpt lat="45.93335" lon="6.0495">
        <ele>639</ele>
        <time>2014-01-09T11:35:38Z</time>
      </trkpt>
      <trkpt lat="45.93339" lon="6.04952">
        <ele>639</ele>
        <time>2014-01-09T11:35:42Z</time>
      </trkpt>
      <trkpt lat="45.93339" lon="6.04963">
        <ele>637</ele>
        <time>2014-01-09T11:35:48Z</time>
      </trkpt>
      <trkpt lat="45.9334" lon="6.04968">
        <ele>637</ele>
        <time>2014-01-09T11:35:51Z</time>
      </trkpt>
      <trkpt lat="45.93347" lon="6.04977">
        <ele>635</ele>
        <time>2014-01-09T11:35:59Z</time>
      </trkpt>
      <trkpt lat="45.93349" lon="6.04979">
        <ele>634</ele>
        <time>2014-01-09T11:36:01Z</time>
      </trkpt>
      <trkpt lat="45.9335" lon="6.04982">
        <ele>632</ele>
        <time>2014-01-09T11:36:04Z</time>
      </trkpt>
      <trkpt lat="45.93353" lon="6.0499">
        <ele>630</ele>
        <time>2014-01-09T11:36:10Z</time>
      </trkpt>
      <trkpt lat="45.93358" lon="6.04997">
        <ele>627</ele>
        <time>2014-01-09T11:36:17Z</time>
      </trkpt>
      <trkpt lat="45.93359" lon="6.05006">
        <ele>626</ele>
        <time>2014-01-09T11:36:23Z</time>
      </trkpt>
      <trkpt lat="45.93368" lon="6.05009">
        <ele>626</ele>
        <time>2014-01-09T11:36:30Z</time>
      </trkpt>
      <trkpt lat="45.93376" lon="6.05009">
        <ele>625</ele>
        <time>2014-01-09T11:36:36Z</time>
      </trkpt>
      <trkpt lat="45.93388" lon="6.05004">
        <ele>626</ele>
        <time>2014-01-09T11:36:45Z</time>
      </trkpt>
      <trkpt lat="45.93394" lon="6.05001">
        <ele>625</ele>
        <time>2014-01-09T11:36:50Z</time>
      </trkpt>
      <trkpt lat="45.93401" lon="6.0501">
        <ele>626</ele>
        <time>2014-01-09T11:36:57Z</time>
      </trkpt>
      <trkpt lat="45.93408" lon="6.05025">
        <ele>629</ele>
        <time>2014-01-09T11:37:06Z</time>
      </trkpt>
      <trkpt lat="45.93414" lon="6.05039">
        <ele>629</ele>
        <time>2014-01-09T11:37:14Z</time>
      </trkpt>
      <trkpt lat="45.93418" lon="6.05053">
        <ele>629</ele>
        <time>2014-01-09T11:37:22Z</time>
      </trkpt>
      <trkpt lat="45.93425" lon="6.05066">
        <ele>626</ele>
        <time>2014-01-09T11:37:32Z</time>
      </trkpt>
      <trkpt lat="45.93431" lon="6.05074">
        <ele>624</ele>
        <time>2014-01-09T11:37:38Z</time>
      </trkpt>
      <trkpt lat="45.93437" lon="6.05085">
        <ele>622</ele>
        <time>2014-01-09T11:37:45Z</time>
      </trkpt>
      <trkpt lat="45.93438" lon="6.05087">
        <ele>621</ele>
        <time>2014-01-09T11:37:47Z</time>
      </trkpt>
      <trkpt lat="45.93443" lon="6.05096">
        <ele>620</ele>
        <time>2014-01-09T11:37:53Z</time>
      </trkpt>
      <trkpt lat="45.93441" lon="6.05115">
        <ele>620</ele>
        <time>2014-01-09T11:38:03Z</time>
      </trkpt>
      <trkpt lat="45.93433" lon="6.05125">
        <ele>621</ele>
        <time>2014-01-09T11:38:10Z</time>
      </trkpt>
      <trkpt lat="45.9343" lon="6.0513">
        <ele>621</ele>
        <time>2014-01-09T11:38:14Z</time>
      </trkpt>
      <trkpt lat="45.93422" lon="6.05144">
        <ele>622</ele>
        <time>2014-01-09T11:38:23Z</time>
      </trkpt>
      <trkpt lat="45.93416" lon="6.0516">
        <ele>622</ele>
        <time>2014-01-09T11:38:32Z</time>
      </trkpt>
      <trkpt lat="45.93411" lon="6.05177">
        <ele>624</ele>
        <time>2014-01-09T11:38:41Z</time>
      </trkpt>
      <trkpt lat="45.93411" lon="6.05191">
        <ele>624</ele>
        <time>2014-01-09T11:38:48Z</time>
      </trkpt>
      <trkpt lat="45.93413" lon="6.05206">
        <ele>625</ele>
        <time>2014-01-09T11:38:56Z</time>
      </trkpt>
      <trkpt lat="45.93418" lon="6.05224">
        <ele>625</ele>
        <time>2014-01-09T11:39:05Z</time>
      </trkpt>
      <trkpt lat="45.93424" lon="6.05231">
        <ele>627</ele>
        <time>2014-01-09T11:39:13Z</time>
      </trkpt>
      <trkpt lat="45.93425" lon="6.05231">
        <ele>628</ele>
        <time>2014-01-09T11:39:15Z</time>
      </trkpt>
      <trkpt lat="45.9343" lon="6.0523">
        <ele>629</ele>
        <time>2014-01-09T11:39:22Z</time>
      </trkpt>
      <trkpt lat="45.93437" lon="6.05232">
        <ele>631</ele>
        <time>2014-01-09T11:39:31Z</time>
      </trkpt>
      <trkpt lat="45.93441" lon="6.05231">
        <ele>631</ele>
        <time>2014-01-09T11:39:36Z</time>
      </trkpt>
      <trkpt lat="45.93453" lon="6.05217">
        <ele>632</ele>
        <time>2014-01-09T11:39:48Z</time>
      </trkpt>
      <trkpt lat="45.93454" lon="6.05216">
        <ele>633</ele>
        <time>2014-01-09T11:39:49Z</time>
      </trkpt>
      <trkpt lat="45.93454" lon="6.05201">
        <ele>636</ele>
        <time>2014-01-09T11:39:58Z</time>
      </trkpt>
      <trkpt lat="45.93453" lon="6.05197">
        <ele>634</ele>
        <time>2014-01-09T11:40:01Z</time>
      </trkpt>
      <trkpt lat="45.93455" lon="6.0519">
        <ele>635</ele>
        <time>2014-01-09T11:40:05Z</time>
      </trkpt>
      <trkpt lat="45.93457" lon="6.05186">
        <ele>634</ele>
        <time>2014-01-09T11:40:08Z</time>
      </trkpt>
      <trkpt lat="45.93458" lon="6.05179">
        <ele>634</ele>
        <time>2014-01-09T11:40:12Z</time>
      </trkpt>
      <trkpt lat="45.93466" lon="6.05168">
        <ele>633</ele>
        <time>2014-01-09T11:40:21Z</time>
      </trkpt>
      <trkpt lat="45.93474" lon="6.05163">
        <ele>634</ele>
        <time>2014-01-09T11:40:27Z</time>
      </trkpt>
      <trkpt lat="45.9348" lon="6.0516">
        <ele>634</ele>
        <time>2014-01-09T11:40:32Z</time>
      </trkpt>
      <trkpt lat="45.93484" lon="6.0516">
        <ele>635</ele>
        <time>2014-01-09T11:40:35Z</time>
      </trkpt>
      <trkpt lat="45.93489" lon="6.05164">
        <ele>635</ele>
        <time>2014-01-09T11:40:40Z</time>
      </trkpt>
      <trkpt lat="45.93496" lon="6.05164">
        <ele>635</ele>
        <time>2014-01-09T11:40:45Z</time>
      </trkpt>
      <trkpt lat="45.93505" lon="6.05171">
        <ele>634</ele>
        <time>2014-01-09T11:40:52Z</time>
      </trkpt>
      <trkpt lat="45.93507" lon="6.05179">
        <ele>634</ele>
        <time>2014-01-09T11:40:56Z</time>
      </trkpt>
      <trkpt lat="45.93506" lon="6.05187">
        <ele>632</ele>
        <time>2014-01-09T11:41:01Z</time>
      </trkpt>
      <trkpt lat="45.93511" lon="6.05196">
        <ele>632</ele>
        <time>2014-01-09T11:41:07Z</time>
      </trkpt>
      <trkpt lat="45.93513" lon="6.05199">
        <ele>635</ele>
        <time>2014-01-09T11:41:09Z</time>
      </trkpt>
      <trkpt lat="45.93518" lon="6.05207">
        <ele>637</ele>
        <time>2014-01-09T11:41:15Z</time>
      </trkpt>
      <trkpt lat="45.93523" lon="6.0522">
        <ele>636</ele>
        <time>2014-01-09T11:41:23Z</time>
      </trkpt>
      <trkpt lat="45.93527" lon="6.05226">
        <ele>636</ele>
        <time>2014-01-09T11:41:27Z</time>
      </trkpt>
      <trkpt lat="45.9353" lon="6.05222">
        <ele>638</ele>
        <time>2014-01-09T11:41:32Z</time>
      </trkpt>
      <trkpt lat="45.93532" lon="6.05218">
        <ele>637</ele>
        <time>2014-01-09T11:41:35Z</time>
      </trkpt>
      <trkpt lat="45.93542" lon="6.05214">
        <ele>636</ele>
        <time>2014-01-09T11:41:44Z</time>
      </trkpt>
      <trkpt lat="45.93553" lon="6.05215">
        <ele>637</ele>
        <time>2014-01-09T11:41:52Z</time>
      </trkpt>
      <trkpt lat="45.93564" lon="6.05222">
        <ele>637</ele>
        <time>2014-01-09T11:42:00Z</time>
      </trkpt>
      <trkpt lat="45.93572" lon="6.05235">
        <ele>637</ele>
        <time>2014-01-09T11:42:08Z</time>
      </trkpt>
      <trkpt lat="45.93577" lon="6.05239">
        <ele>637</ele>
        <time>2014-01-09T11:42:12Z</time>
      </trkpt>
      <trkpt lat="45.9359" lon="6.05237">
        <ele>637</ele>
        <time>2014-01-09T11:42:22Z</time>
      </trkpt>
      <trkpt lat="45.93601" lon="6.05239">
        <ele>636</ele>
        <time>2014-01-09T11:42:29Z</time>
      </trkpt>
      <trkpt lat="45.93605" lon="6.05239">
        <ele>636</ele>
        <time>2014-01-09T11:42:32Z</time>
      </trkpt>
      <trkpt lat="45.93617" lon="6.05241">
        <ele>634</ele>
        <time>2014-01-09T11:42:40Z</time>
      </trkpt>
      <trkpt lat="45.93619" lon="6.05241">
        <ele>634</ele>
        <time>2014-01-09T11:42:41Z</time>
      </trkpt>
      <trkpt lat="45.93631" lon="6.0524">
        <ele>633</ele>
        <time>2014-01-09T11:42:49Z</time>
      </trkpt>
      <trkpt lat="45.9364" lon="6.05241">
        <ele>632</ele>
        <time>2014-01-09T11:42:55Z</time>
      </trkpt>
      <trkpt lat="45.93651" lon="6.0524">
        <ele>632</ele>
        <time>2014-01-09T11:43:02Z</time>
      </trkpt>
      <trkpt lat="45.93661" lon="6.05237">
        <ele>630</ele>
        <time>2014-01-09T11:43:09Z</time>
      </trkpt>
      <trkpt lat="45.93669" lon="6.0524">
        <ele>630</ele>
        <time>2014-01-09T11:43:15Z</time>
      </trkpt>
      <trkpt lat="45.93678" lon="6.05252">
        <ele>628</ele>
        <time>2014-01-09T11:43:23Z</time>
      </trkpt>
      <trkpt lat="45.93677" lon="6.05264">
        <ele>628</ele>
        <time>2014-01-09T11:43:30Z</time>
      </trkpt>
      <trkpt lat="45.93673" lon="6.05281">
        <ele>628</ele>
        <time>2014-01-09T11:43:40Z</time>
      </trkpt>
      <trkpt lat="45.93662" lon="6.05294">
        <ele>628</ele>
        <time>2014-01-09T11:43:49Z</time>
      </trkpt>
      <trkpt lat="45.93655" lon="6.05304">
        <ele>627</ele>
        <time>2014-01-09T11:43:56Z</time>
      </trkpt>
      <trkpt lat="45.93653" lon="6.05311">
        <ele>625</ele>
        <time>2014-01-09T11:44:00Z</time>
      </trkpt>
      <trkpt lat="45.93647" lon="6.0532">
        <ele>625</ele>
        <time>2014-01-09T11:44:05Z</time>
      </trkpt>
      <trkpt lat="45.93639" lon="6.05339">
        <ele>624</ele>
        <time>2014-01-09T11:44:15Z</time>
      </trkpt>
      <trkpt lat="45.93632" lon="6.05352">
        <ele>622</ele>
        <time>2014-01-09T11:44:24Z</time>
      </trkpt>
      <trkpt lat="45.93625" lon="6.05366">
        <ele>620</ele>
        <time>2014-01-09T11:44:33Z</time>
      </trkpt>
      <trkpt lat="45.93617" lon="6.05377">
        <ele>619</ele>
        <time>2014-01-09T11:44:41Z</time>
      </trkpt>
      <trkpt lat="45.93612" lon="6.05383">
        <ele>618</ele>
        <time>2014-01-09T11:44:45Z</time>
      </trkpt>
      <trkpt lat="45.93608" lon="6.05391">
        <ele>616</ele>
        <time>2014-01-09T11:44:50Z</time>
      </trkpt>
      <trkpt lat="45.93599" lon="6.05401">
        <ele>615</ele>
        <time>2014-01-09T11:44:58Z</time>
      </trkpt>
      <trkpt lat="45.93587" lon="6.05409">
        <ele>614</ele>
        <time>2014-01-09T11:45:06Z</time>
      </trkpt>
      <trkpt lat="45.93577" lon="6.05414">
        <ele>614</ele>
        <time>2014-01-09T11:45:13Z</time>
      </trkpt>
      <trkpt lat="45.93568" lon="6.05422">
        <ele>612</ele>
        <time>2014-01-09T11:45:20Z</time>
      </trkpt>
      <trkpt lat="45.93566" lon="6.05422">
        <ele>612</ele>
        <time>2014-01-09T11:45:21Z</time>
      </trkpt>
      <trkpt lat="45.93558" lon="6.05424">
        <ele>613</ele>
        <time>2014-01-09T11:45:25Z</time>
      </trkpt>
      <trkpt lat="45.93556" lon="6.05427">
        <ele>612</ele>
        <time>2014-01-09T11:45:27Z</time>
      </trkpt>
      <trkpt lat="45.93556" lon="6.05431">
        <ele>611</ele>
        <time>2014-01-09T11:45:30Z</time>
      </trkpt>
      <trkpt lat="45.93559" lon="6.05443">
        <ele>609</ele>
        <time>2014-01-09T11:45:38Z</time>
      </trkpt>
      <trkpt lat="45.93561" lon="6.05445">
        <ele>608</ele>
        <time>2014-01-09T11:45:40Z</time>
      </trkpt>
      <trkpt lat="45.93561" lon="6.05458">
        <ele>606</ele>
        <time>2014-01-09T11:45:47Z</time>
      </trkpt>
      <trkpt lat="45.93566" lon="6.0547">
        <ele>603</ele>
        <time>2014-01-09T11:45:55Z</time>
      </trkpt>
      <trkpt lat="45.93573" lon="6.05481">
        <ele>602</ele>
        <time>2014-01-09T11:46:04Z</time>
      </trkpt>
      <trkpt lat="45.93579" lon="6.05497">
        <ele>600</ele>
        <time>2014-01-09T11:46:14Z</time>
      </trkpt>
      <trkpt lat="45.9358" lon="6.05504">
        <ele>599</ele>
        <time>2014-01-09T11:46:17Z</time>
      </trkpt>
      <trkpt lat="45.93582" lon="6.05518">
        <ele>598</ele>
        <time>2014-01-09T11:46:24Z</time>
      </trkpt>
      <trkpt lat="45.93581" lon="6.05535">
        <ele>598</ele>
        <time>2014-01-09T11:46:33Z</time>
      </trkpt>
      <trkpt lat="45.93582" lon="6.05546">
        <ele>597</ele>
        <time>2014-01-09T11:46:39Z</time>
      </trkpt>
      <trkpt lat="45.93583" lon="6.05554">
        <ele>596</ele>
        <time>2014-01-09T11:46:44Z</time>
      </trkpt>
      <trkpt lat="45.93586" lon="6.05569">
        <ele>594</ele>
        <time>2014-01-09T11:46:52Z</time>
      </trkpt>
      <trkpt lat="45.93594" lon="6.05578">
        <ele>594</ele>
        <time>2014-01-09T11:46:59Z</time>
      </trkpt>
      <trkpt lat="45.93603" lon="6.05585">
        <ele>593</ele>
        <time>2014-01-09T11:47:07Z</time>
      </trkpt>
      <trkpt lat="45.93608" lon="6.05594">
        <ele>593</ele>
        <time>2014-01-09T11:47:12Z</time>
      </trkpt>
      <trkpt lat="45.93616" lon="6.05604">
        <ele>592</ele>
        <time>2014-01-09T11:47:20Z</time>
      </trkpt>
      <trkpt lat="45.93627" lon="6.05605">
        <ele>592</ele>
        <time>2014-01-09T11:47:28Z</time>
      </trkpt>
      <trkpt lat="45.93638" lon="6.05603">
        <ele>592</ele>
        <time>2014-01-09T11:47:36Z</time>
      </trkpt>
      <trkpt lat="45.93648" lon="6.05604">
        <ele>591</ele>
        <time>2014-01-09T11:47:43Z</time>
      </trkpt>
      <trkpt lat="45.93664" lon="6.05603">
        <ele>589</ele>
        <time>2014-01-09T11:47:54Z</time>
      </trkpt>
      <trkpt lat="45.93676" lon="6.05608">
        <ele>588</ele>
        <time>2014-01-09T11:48:02Z</time>
      </trkpt>
      <trkpt lat="45.93688" lon="6.0561">
        <ele>587</ele>
        <time>2014-01-09T11:48:10Z</time>
      </trkpt>
      <trkpt lat="45.93701" lon="6.05615">
        <ele>586</ele>
        <time>2014-01-09T11:48:18Z</time>
      </trkpt>
      <trkpt lat="45.93707" lon="6.05622">
        <ele>586</ele>
        <time>2014-01-09T11:48:23Z</time>
      </trkpt>
      <trkpt lat="45.93721" lon="6.05636">
        <ele>584</ele>
        <time>2014-01-09T11:48:34Z</time>
      </trkpt>
      <trkpt lat="45.9373" lon="6.0565">
        <ele>583</ele>
        <time>2014-01-09T11:48:43Z</time>
      </trkpt>
      <trkpt lat="45.93736" lon="6.0566">
        <ele>582</ele>
        <time>2014-01-09T11:48:50Z</time>
      </trkpt>
      <trkpt lat="45.93741" lon="6.05668">
        <ele>582</ele>
        <time>2014-01-09T11:48:55Z</time>
      </trkpt>
      <trkpt lat="45.93746" lon="6.05678">
        <ele>580</ele>
        <time>2014-01-09T11:49:02Z</time>
      </trkpt>
      <trkpt lat="45.93754" lon="6.0569">
        <ele>579</ele>
        <time>2014-01-09T11:49:10Z</time>
      </trkpt>
      <trkpt lat="45.9376" lon="6.05698">
        <ele>578</ele>
        <time>2014-01-09T11:49:17Z</time>
      </trkpt>
      <trkpt lat="45.93766" lon="6.05706">
        <ele>577</ele>
        <time>2014-01-09T11:49:23Z</time>
      </trkpt>
      <trkpt lat="45.93775" lon="6.05716">
        <ele>577</ele>
        <time>2014-01-09T11:49:30Z</time>
      </trkpt>
      <trkpt lat="45.93786" lon="6.05725">
        <ele>576</ele>
        <time>2014-01-09T11:49:40Z</time>
      </trkpt>
      <trkpt lat="45.93798" lon="6.05727">
        <ele>576</ele>
        <time>2014-01-09T11:49:48Z</time>
      </trkpt>
      <trkpt lat="45.93807" lon="6.05732">
        <ele>575</ele>
        <time>2014-01-09T11:49:54Z</time>
      </trkpt>
      <trkpt lat="45.93814" lon="6.05733">
        <ele>574</ele>
        <time>2014-01-09T11:50:00Z</time>
      </trkpt>
      <trkpt lat="45.93823" lon="6.05729">
        <ele>574</ele>
        <time>2014-01-09T11:50:06Z</time>
      </trkpt>
      <trkpt lat="45.93834" lon="6.05736">
        <ele>572</ele>
        <time>2014-01-09T11:50:14Z</time>
      </trkpt>
      <trkpt lat="45.93838" lon="6.05741">
        <ele>571</ele>
        <time>2014-01-09T11:50:18Z</time>
      </trkpt>
      <trkpt lat="45.93845" lon="6.05738">
        <ele>569</ele>
        <time>2014-01-09T11:50:24Z</time>
      </trkpt>
      <trkpt lat="45.93854" lon="6.05734">
        <ele>567</ele>
        <time>2014-01-09T11:50:32Z</time>
      </trkpt>
      <trkpt lat="45.93861" lon="6.0573">
        <ele>564</ele>
        <time>2014-01-09T11:50:39Z</time>
      </trkpt>
      <trkpt lat="45.93871" lon="6.05729">
        <ele>564</ele>
        <time>2014-01-09T11:50:46Z</time>
      </trkpt>
      <trkpt lat="45.93884" lon="6.05717">
        <ele>563</ele>
        <time>2014-01-09T11:50:57Z</time>
      </trkpt>
      <trkpt lat="45.93891" lon="6.05705">
        <ele>563</ele>
        <time>2014-01-09T11:51:04Z</time>
      </trkpt>
      <trkpt lat="45.93896" lon="6.05689">
        <ele>561</ele>
        <time>2014-01-09T11:51:12Z</time>
      </trkpt>
      <trkpt lat="45.93901" lon="6.05673">
        <ele>561</ele>
        <time>2014-01-09T11:51:20Z</time>
      </trkpt>
      <trkpt lat="45.93906" lon="6.05656">
        <ele>560</ele>
        <time>2014-01-09T11:51:28Z</time>
      </trkpt>
      <trkpt lat="45.93913" lon="6.05641">
        <ele>558</ele>
        <time>2014-01-09T11:51:37Z</time>
      </trkpt>
      <trkpt lat="45.93922" lon="6.05627">
        <ele>556</ele>
        <time>2014-01-09T11:51:47Z</time>
      </trkpt>
      <trkpt lat="45.93929" lon="6.05617">
        <ele>556</ele>
        <time>2014-01-09T11:51:54Z</time>
      </trkpt>
      <trkpt lat="45.93936" lon="6.05613">
        <ele>554</ele>
        <time>2014-01-09T11:52:00Z</time>
      </trkpt>
      <trkpt lat="45.93946" lon="6.05606">
        <ele>553</ele>
        <time>2014-01-09T11:52:09Z</time>
      </trkpt>
      <trkpt lat="45.93955" lon="6.05602">
        <ele>550</ele>
        <time>2014-01-09T11:52:17Z</time>
      </trkpt>
      <trkpt lat="45.9396" lon="6.05601">
        <ele>550</ele>
        <time>2014-01-09T11:52:21Z</time>
      </trkpt>
      <trkpt lat="45.93964" lon="6.05604">
        <ele>548</ele>
        <time>2014-01-09T11:52:25Z</time>
      </trkpt>
      <trkpt lat="45.93968" lon="6.05607">
        <ele>547</ele>
        <time>2014-01-09T11:52:29Z</time>
      </trkpt>
      <trkpt lat="45.93972" lon="6.05612">
        <ele>547</ele>
        <time>2014-01-09T11:52:33Z</time>
      </trkpt>
      <trkpt lat="45.93981" lon="6.05617">
        <ele>545</ele>
        <time>2014-01-09T11:52:40Z</time>
      </trkpt>
      <trkpt lat="45.93985" lon="6.05611">
        <ele>544</ele>
        <time>2014-01-09T11:52:46Z</time>
      </trkpt>
      <trkpt lat="45.93987" lon="6.05609">
        <ele>543</ele>
        <time>2014-01-09T11:52:48Z</time>
      </trkpt>
      <trkpt lat="45.93996" lon="6.05596">
        <ele>540</ele>
        <time>2014-01-09T11:52:58Z</time>
      </trkpt>
      <trkpt lat="45.94001" lon="6.05586">
        <ele>538</ele>
        <time>2014-01-09T11:53:05Z</time>
      </trkpt>
      <trkpt lat="45.94004" lon="6.05577">
        <ele>537</ele>
        <time>2014-01-09T11:53:11Z</time>
      </trkpt>
      <trkpt lat="45.94011" lon="6.05571">
        <ele>534</ele>
        <time>2014-01-09T11:53:17Z</time>
      </trkpt>
      <trkpt lat="45.94013" lon="6.05569">
        <ele>534</ele>
        <time>2014-01-09T11:53:19Z</time>
      </trkpt>
      <trkpt lat="45.94018" lon="6.05566">
        <ele>534</ele>
        <time>2014-01-09T11:53:24Z</time>
      </trkpt>
      <trkpt lat="45.9402" lon="6.05566">
        <ele>534</ele>
        <time>2014-01-09T11:53:26Z</time>
      </trkpt>
      <trkpt lat="45.94023" lon="6.05563">
        <ele>532</ele>
        <time>2014-01-09T11:53:29Z</time>
      </trkpt>
      <trkpt lat="45.94025" lon="6.05555">
        <ele>532</ele>
        <time>2014-01-09T11:53:33Z</time>
      </trkpt>
      <trkpt lat="45.94026" lon="6.05545">
        <ele>530</ele>
        <time>2014-01-09T11:53:38Z</time>
      </trkpt>
      <trkpt lat="45.94028" lon="6.05526">
        <ele>529</ele>
        <time>2014-01-09T11:53:47Z</time>
      </trkpt>
      <trkpt lat="45.94028" lon="6.05509">
        <ele>528</ele>
        <time>2014-01-09T11:53:55Z</time>
      </trkpt>
      <trkpt lat="45.94031" lon="6.05489">
        <ele>528</ele>
        <time>2014-01-09T11:54:04Z</time>
      </trkpt>
      <trkpt lat="45.94031" lon="6.05466">
        <ele>528</ele>
        <time>2014-01-09T11:54:14Z</time>
      </trkpt>
      <trkpt lat="45.94031" lon="6.0545">
        <ele>527</ele>
        <time>2014-01-09T11:54:22Z</time>
      </trkpt>
      <trkpt lat="45.94032" lon="6.05432">
        <ele>526</ele>
        <time>2014-01-09T11:54:31Z</time>
      </trkpt>
      <trkpt lat="45.94031" lon="6.05417">
        <ele>524</ele>
        <time>2014-01-09T11:54:40Z</time>
      </trkpt>
      <trkpt lat="45.94032" lon="6.05412">
        <ele>525</ele>
        <time>2014-01-09T11:54:54Z</time>
      </trkpt>
      <trkpt lat="45.94031" lon="6.05409">
        <ele>524</ele>
        <time>2014-01-09T11:54:56Z</time>
      </trkpt>
      <trkpt lat="45.94031" lon="6.05402">
        <ele>523</ele>
        <time>2014-01-09T11:55:00Z</time>
      </trkpt>
      <trkpt lat="45.94031" lon="6.05392">
        <ele>522</ele>
        <time>2014-01-09T11:55:05Z</time>
      </trkpt>
      <trkpt lat="45.94031" lon="6.05378">
        <ele>520</ele>
        <time>2014-01-09T11:55:12Z</time>
      </trkpt>
      <trkpt lat="45.94029" lon="6.05365">
        <ele>520</ele>
        <time>2014-01-09T11:55:19Z</time>
      </trkpt>
      <trkpt lat="45.9403" lon="6.0536">
        <ele>520</ele>
        <time>2014-01-09T11:55:22Z</time>
      </trkpt>
      <trkpt lat="45.9403" lon="6.0535">
        <ele>519</ele>
        <time>2014-01-09T11:55:27Z</time>
      </trkpt>
      <trkpt lat="45.94029" lon="6.05341">
        <ele>519</ele>
        <time>2014-01-09T11:55:32Z</time>
      </trkpt>
      <trkpt lat="45.94032" lon="6.0534">
        <ele>518</ele>
        <time>2014-01-09T11:55:36Z</time>
      </trkpt>
      <trkpt lat="45.94035" lon="6.05346">
        <ele>519</ele>
        <time>2014-01-09T11:55:45Z</time>
      </trkpt>
    </trkseg>
  </trk>
</gpx>